<?xml version="1.0" encoding="UTF-8" standalone="no" ?>
<gpx xmlns="http://www.topografix.com/GPX/1/1" xmlns:xsi="http://www.w3.org/2001/XMLSchema-instance" xsi:schemaLocation="http://www.topografix.com/GPX/1/1 http://www.topografix.com/GPX/1/1/gpx.xsd" version="1.1" creator="VisuGPX - https://www.visugpx.com">
  <metadata>
    <name>Clisson Fouques-Sèvre-Moine</name>
  </metadata>
  <trk>
    <name><![CDATA[13022427-9 Fouques-Sèvre-Moine]]></name>
    <extensions>
      <line xmlns="http://www.topografix.com/GPX/gpx_style/0/2">
        <color>0000FF</color>
        <width>4</width>
      </line>
    </extensions>
    <trkseg>
      <trkpt lat="47.07838" lon="-1.26393">
        <ele>36</ele>
        <time>2022-06-07T04:02:10Z</time>
      </trkpt>
      <trkpt lat="47.07833" lon="-1.26399">
        <ele>36</ele>
        <time>2022-06-07T04:02:19Z</time>
      </trkpt>
      <trkpt lat="47.07835" lon="-1.26401">
        <ele>36</ele>
        <time>2022-06-07T04:02:22Z</time>
      </trkpt>
      <trkpt lat="47.07833" lon="-1.26402">
        <ele>36</ele>
        <time>2022-06-07T04:02:25Z</time>
      </trkpt>
      <trkpt lat="47.07831" lon="-1.26399">
        <ele>36</ele>
        <time>2022-06-07T04:02:28Z</time>
      </trkpt>
      <trkpt lat="47.07796" lon="-1.26413">
        <ele>37</ele>
        <time>2022-06-07T04:03:17Z</time>
      </trkpt>
      <trkpt lat="47.07721" lon="-1.26456">
        <ele>36</ele>
        <time>2022-06-07T04:05:04Z</time>
      </trkpt>
      <trkpt lat="47.07709" lon="-1.26473">
        <ele>36</ele>
        <time>2022-06-07T04:05:27Z</time>
      </trkpt>
      <trkpt lat="47.07708" lon="-1.26491">
        <ele>36</ele>
        <time>2022-06-07T04:05:43Z</time>
      </trkpt>
      <trkpt lat="47.07718" lon="-1.26527">
        <ele>35</ele>
        <time>2022-06-07T04:06:18Z</time>
      </trkpt>
      <trkpt lat="47.07715" lon="-1.26531">
        <ele>35</ele>
        <time>2022-06-07T04:06:24Z</time>
      </trkpt>
      <trkpt lat="47.07696" lon="-1.26535">
        <ele>35</ele>
        <time>2022-06-07T04:06:49Z</time>
      </trkpt>
      <trkpt lat="47.07543" lon="-1.26527">
        <ele>37</ele>
        <time>2022-06-07T04:10:14Z</time>
      </trkpt>
      <trkpt lat="47.07492" lon="-1.26532">
        <ele>37</ele>
        <time>2022-06-07T04:11:22Z</time>
      </trkpt>
      <trkpt lat="47.0747" lon="-1.26526">
        <ele>37</ele>
        <time>2022-06-07T04:11:52Z</time>
      </trkpt>
      <trkpt lat="47.07442" lon="-1.26506">
        <ele>37</ele>
        <time>2022-06-07T04:12:33Z</time>
      </trkpt>
      <trkpt lat="47.07427" lon="-1.26485">
        <ele>37</ele>
        <time>2022-06-07T04:13:01Z</time>
      </trkpt>
      <trkpt lat="47.07414" lon="-1.26452">
        <ele>38</ele>
        <time>2022-06-07T04:13:36Z</time>
      </trkpt>
      <trkpt lat="47.07382" lon="-1.26387">
        <ele>37</ele>
        <time>2022-06-07T04:14:48Z</time>
      </trkpt>
      <trkpt lat="47.07347" lon="-1.26345">
        <ele>37</ele>
        <time>2022-06-07T04:15:49Z</time>
      </trkpt>
      <trkpt lat="47.07298" lon="-1.26256">
        <ele>36</ele>
        <time>2022-06-07T04:17:33Z</time>
      </trkpt>
      <trkpt lat="47.07288" lon="-1.26227">
        <ele>37</ele>
        <time>2022-06-07T04:18:02Z</time>
      </trkpt>
      <trkpt lat="47.07272" lon="-1.26144">
        <ele>38</ele>
        <time>2022-06-07T04:19:21Z</time>
      </trkpt>
      <trkpt lat="47.07246" lon="-1.2609">
        <ele>39</ele>
        <time>2022-06-07T04:20:21Z</time>
      </trkpt>
      <trkpt lat="47.07239" lon="-1.26081">
        <ele>39</ele>
        <time>2022-06-07T04:20:33Z</time>
      </trkpt>
      <trkpt lat="47.07226" lon="-1.26053">
        <ele>37</ele>
        <time>2022-06-07T04:21:04Z</time>
      </trkpt>
      <trkpt lat="47.0715" lon="-1.25913">
        <ele>32</ele>
        <time>2022-06-07T04:23:47Z</time>
      </trkpt>
      <trkpt lat="47.07142" lon="-1.25887">
        <ele>31</ele>
        <time>2022-06-07T04:24:13Z</time>
      </trkpt>
      <trkpt lat="47.07145" lon="-1.25878">
        <ele>31</ele>
        <time>2022-06-07T04:24:22Z</time>
      </trkpt>
      <trkpt lat="47.07174" lon="-1.25849">
        <ele>30</ele>
        <time>2022-06-07T04:25:09Z</time>
      </trkpt>
      <trkpt lat="47.07241" lon="-1.25764">
        <ele>27</ele>
        <time>2022-06-07T04:27:07Z</time>
      </trkpt>
      <trkpt lat="47.07262" lon="-1.25742">
        <ele>27</ele>
        <time>2022-06-07T04:27:41Z</time>
      </trkpt>
      <trkpt lat="47.07285" lon="-1.25726">
        <ele>27</ele>
        <time>2022-06-07T04:28:15Z</time>
      </trkpt>
      <trkpt lat="47.07319" lon="-1.2567">
        <ele>27</ele>
        <time>2022-06-07T04:29:23Z</time>
      </trkpt>
      <trkpt lat="47.07352" lon="-1.25625">
        <ele>25</ele>
        <time>2022-06-07T04:30:23Z</time>
      </trkpt>
      <trkpt lat="47.07373" lon="-1.25604">
        <ele>24</ele>
        <time>2022-06-07T04:30:57Z</time>
      </trkpt>
      <trkpt lat="47.07384" lon="-1.25554">
        <ele>22</ele>
        <time>2022-06-07T04:31:45Z</time>
      </trkpt>
      <trkpt lat="47.07391" lon="-1.25551">
        <ele>22</ele>
        <time>2022-06-07T04:31:55Z</time>
      </trkpt>
      <trkpt lat="47.07392" lon="-1.25548">
        <ele>22</ele>
        <time>2022-06-07T04:31:58Z</time>
      </trkpt>
      <trkpt lat="47.07413" lon="-1.25533">
        <ele>22</ele>
        <time>2022-06-07T04:32:29Z</time>
      </trkpt>
      <trkpt lat="47.07431" lon="-1.25525">
        <ele>22</ele>
        <time>2022-06-07T04:32:54Z</time>
      </trkpt>
      <trkpt lat="47.07449" lon="-1.25507">
        <ele>23</ele>
        <time>2022-06-07T04:33:23Z</time>
      </trkpt>
      <trkpt lat="47.07462" lon="-1.25499">
        <ele>23</ele>
        <time>2022-06-07T04:33:42Z</time>
      </trkpt>
      <trkpt lat="47.0746" lon="-1.25455">
        <ele>25</ele>
        <time>2022-06-07T04:34:22Z</time>
      </trkpt>
      <trkpt lat="47.07465" lon="-1.25458">
        <ele>25</ele>
        <time>2022-06-07T04:34:29Z</time>
      </trkpt>
      <trkpt lat="47.07467" lon="-1.25452">
        <ele>25</ele>
        <time>2022-06-07T04:34:35Z</time>
      </trkpt>
      <trkpt lat="47.07455" lon="-1.25423">
        <ele>26</ele>
        <time>2022-06-07T04:35:06Z</time>
      </trkpt>
      <trkpt lat="47.07453" lon="-1.25369">
        <ele>25</ele>
        <time>2022-06-07T04:35:55Z</time>
      </trkpt>
      <trkpt lat="47.07442" lon="-1.25397">
        <ele>25</ele>
        <time>2022-06-07T04:36:25Z</time>
      </trkpt>
      <trkpt lat="47.07438" lon="-1.2542">
        <ele>25</ele>
        <time>2022-06-07T04:36:46Z</time>
      </trkpt>
      <trkpt lat="47.07441" lon="-1.25421">
        <ele>25</ele>
        <time>2022-06-07T04:36:50Z</time>
      </trkpt>
      <trkpt lat="47.07443" lon="-1.25419">
        <ele>25</ele>
        <time>2022-06-07T04:36:54Z</time>
      </trkpt>
      <trkpt lat="47.07441" lon="-1.2542">
        <ele>25</ele>
        <time>2022-06-07T04:36:56Z</time>
      </trkpt>
      <trkpt lat="47.07442" lon="-1.25425">
        <ele>25</ele>
        <time>2022-06-07T04:37:01Z</time>
      </trkpt>
      <trkpt lat="47.07437" lon="-1.25422">
        <ele>25</ele>
        <time>2022-06-07T04:37:08Z</time>
      </trkpt>
      <trkpt lat="47.07435" lon="-1.25424">
        <ele>25</ele>
        <time>2022-06-07T04:37:12Z</time>
      </trkpt>
      <trkpt lat="47.0742" lon="-1.25425">
        <ele>24</ele>
        <time>2022-06-07T04:37:32Z</time>
      </trkpt>
      <trkpt lat="47.07379" lon="-1.25435">
        <ele>23</ele>
        <time>2022-06-07T04:38:27Z</time>
      </trkpt>
      <trkpt lat="47.07376" lon="-1.25438">
        <ele>23</ele>
        <time>2022-06-07T04:38:32Z</time>
      </trkpt>
      <trkpt lat="47.07379" lon="-1.25437">
        <ele>23</ele>
        <time>2022-06-07T04:38:36Z</time>
      </trkpt>
      <trkpt lat="47.07375" lon="-1.25437">
        <ele>23</ele>
        <time>2022-06-07T04:38:41Z</time>
      </trkpt>
      <trkpt lat="47.07378" lon="-1.25434">
        <ele>23</ele>
        <time>2022-06-07T04:38:46Z</time>
      </trkpt>
      <trkpt lat="47.07378" lon="-1.25439">
        <ele>23</ele>
        <time>2022-06-07T04:38:51Z</time>
      </trkpt>
      <trkpt lat="47.07338" lon="-1.25447">
        <ele>22</ele>
        <time>2022-06-07T04:39:45Z</time>
      </trkpt>
      <trkpt lat="47.07288" lon="-1.25469">
        <ele>23</ele>
        <time>2022-06-07T04:40:54Z</time>
      </trkpt>
      <trkpt lat="47.07274" lon="-1.25456">
        <ele>23</ele>
        <time>2022-06-07T04:41:16Z</time>
      </trkpt>
      <trkpt lat="47.07252" lon="-1.25416">
        <ele>24</ele>
        <time>2022-06-07T04:42:03Z</time>
      </trkpt>
      <trkpt lat="47.07249" lon="-1.25403">
        <ele>24</ele>
        <time>2022-06-07T04:42:16Z</time>
      </trkpt>
      <trkpt lat="47.07252" lon="-1.25395">
        <ele>24</ele>
        <time>2022-06-07T04:42:24Z</time>
      </trkpt>
      <trkpt lat="47.07308" lon="-1.25342">
        <ele>23</ele>
        <time>2022-06-07T04:43:53Z</time>
      </trkpt>
      <trkpt lat="47.07325" lon="-1.2532">
        <ele>22</ele>
        <time>2022-06-07T04:44:23Z</time>
      </trkpt>
      <trkpt lat="47.07362" lon="-1.25263">
        <ele>24</ele>
        <time>2022-06-07T04:45:35Z</time>
      </trkpt>
      <trkpt lat="47.07387" lon="-1.2521">
        <ele>24</ele>
        <time>2022-06-07T04:46:33Z</time>
      </trkpt>
      <trkpt lat="47.07418" lon="-1.25153">
        <ele>26</ele>
        <time>2022-06-07T04:47:40Z</time>
      </trkpt>
      <trkpt lat="47.07426" lon="-1.25159">
        <ele>25</ele>
        <time>2022-06-07T04:47:52Z</time>
      </trkpt>
      <trkpt lat="47.07444" lon="-1.2516">
        <ele>25</ele>
        <time>2022-06-07T04:48:16Z</time>
      </trkpt>
      <trkpt lat="47.07465" lon="-1.2518">
        <ele>25</ele>
        <time>2022-06-07T04:48:49Z</time>
      </trkpt>
      <trkpt lat="47.07486" lon="-1.25193">
        <ele>25</ele>
        <time>2022-06-07T04:49:19Z</time>
      </trkpt>
      <trkpt lat="47.07495" lon="-1.25195">
        <ele>25</ele>
        <time>2022-06-07T04:49:32Z</time>
      </trkpt>
      <trkpt lat="47.07529" lon="-1.2523">
        <ele>25</ele>
        <time>2022-06-07T04:50:27Z</time>
      </trkpt>
      <trkpt lat="47.07564" lon="-1.25273">
        <ele>26</ele>
        <time>2022-06-07T04:51:28Z</time>
      </trkpt>
      <trkpt lat="47.07573" lon="-1.25298">
        <ele>27</ele>
        <time>2022-06-07T04:51:54Z</time>
      </trkpt>
      <trkpt lat="47.07567" lon="-1.2532">
        <ele>28</ele>
        <time>2022-06-07T04:52:15Z</time>
      </trkpt>
      <trkpt lat="47.0754" lon="-1.2536">
        <ele>28</ele>
        <time>2022-06-07T04:53:06Z</time>
      </trkpt>
      <trkpt lat="47.07536" lon="-1.25383">
        <ele>28</ele>
        <time>2022-06-07T04:53:28Z</time>
      </trkpt>
      <trkpt lat="47.07558" lon="-1.25477">
        <ele>30</ele>
        <time>2022-06-07T04:54:58Z</time>
      </trkpt>
      <trkpt lat="47.07568" lon="-1.25502">
        <ele>30</ele>
        <time>2022-06-07T04:55:25Z</time>
      </trkpt>
      <trkpt lat="47.07593" lon="-1.25533">
        <ele>31</ele>
        <time>2022-06-07T04:56:08Z</time>
      </trkpt>
      <trkpt lat="47.07595" lon="-1.2554">
        <ele>31</ele>
        <time>2022-06-07T04:56:15Z</time>
      </trkpt>
      <trkpt lat="47.07596" lon="-1.25565">
        <ele>31</ele>
        <time>2022-06-07T04:56:38Z</time>
      </trkpt>
      <trkpt lat="47.07593" lon="-1.25611">
        <ele>29</ele>
        <time>2022-06-07T04:57:20Z</time>
      </trkpt>
      <trkpt lat="47.0759" lon="-1.25635">
        <ele>28</ele>
        <time>2022-06-07T04:57:42Z</time>
      </trkpt>
      <trkpt lat="47.07576" lon="-1.25701">
        <ele>27</ele>
        <time>2022-06-07T04:58:45Z</time>
      </trkpt>
      <trkpt lat="47.07574" lon="-1.25718">
        <ele>27</ele>
        <time>2022-06-07T04:59:01Z</time>
      </trkpt>
      <trkpt lat="47.07575" lon="-1.25748">
        <ele>28</ele>
        <time>2022-06-07T04:59:28Z</time>
      </trkpt>
      <trkpt lat="47.07582" lon="-1.25772">
        <ele>27</ele>
        <time>2022-06-07T04:59:52Z</time>
      </trkpt>
      <trkpt lat="47.07619" lon="-1.25855">
        <ele>27</ele>
        <time>2022-06-07T05:01:22Z</time>
      </trkpt>
      <trkpt lat="47.07638" lon="-1.25894">
        <ele>27</ele>
        <time>2022-06-07T05:02:05Z</time>
      </trkpt>
      <trkpt lat="47.07657" lon="-1.25922">
        <ele>27</ele>
        <time>2022-06-07T05:02:41Z</time>
      </trkpt>
      <trkpt lat="47.07681" lon="-1.25944">
        <ele>27</ele>
        <time>2022-06-07T05:03:19Z</time>
      </trkpt>
      <trkpt lat="47.07713" lon="-1.25959">
        <ele>27</ele>
        <time>2022-06-07T05:04:04Z</time>
      </trkpt>
      <trkpt lat="47.07719" lon="-1.25977">
        <ele>25</ele>
        <time>2022-06-07T05:04:22Z</time>
      </trkpt>
      <trkpt lat="47.07729" lon="-1.25991">
        <ele>24</ele>
        <time>2022-06-07T05:04:40Z</time>
      </trkpt>
      <trkpt lat="47.07737" lon="-1.25994">
        <ele>24</ele>
        <time>2022-06-07T05:04:51Z</time>
      </trkpt>
      <trkpt lat="47.07759" lon="-1.25996">
        <ele>25</ele>
        <time>2022-06-07T05:05:21Z</time>
      </trkpt>
      <trkpt lat="47.07779" lon="-1.26008">
        <ele>24</ele>
        <time>2022-06-07T05:05:50Z</time>
      </trkpt>
      <trkpt lat="47.07799" lon="-1.26">
        <ele>25</ele>
        <time>2022-06-07T05:06:17Z</time>
      </trkpt>
      <trkpt lat="47.0782" lon="-1.25996">
        <ele>26</ele>
        <time>2022-06-07T05:06:46Z</time>
      </trkpt>
      <trkpt lat="47.0783" lon="-1.25989">
        <ele>27</ele>
        <time>2022-06-07T05:07:00Z</time>
      </trkpt>
      <trkpt lat="47.07848" lon="-1.25986">
        <ele>27</ele>
        <time>2022-06-07T05:07:25Z</time>
      </trkpt>
      <trkpt lat="47.07859" lon="-1.25981">
        <ele>28</ele>
        <time>2022-06-07T05:07:40Z</time>
      </trkpt>
      <trkpt lat="47.07876" lon="-1.25984">
        <ele>27</ele>
        <time>2022-06-07T05:08:03Z</time>
      </trkpt>
      <trkpt lat="47.07881" lon="-1.25989">
        <ele>27</ele>
        <time>2022-06-07T05:08:11Z</time>
      </trkpt>
      <trkpt lat="47.07917" lon="-1.25986">
        <ele>27</ele>
        <time>2022-06-07T05:08:59Z</time>
      </trkpt>
      <trkpt lat="47.07938" lon="-1.25987">
        <ele>29</ele>
        <time>2022-06-07T05:09:27Z</time>
      </trkpt>
      <trkpt lat="47.07958" lon="-1.26028">
        <ele>29</ele>
        <time>2022-06-07T05:10:13Z</time>
      </trkpt>
      <trkpt lat="47.07963" lon="-1.26058">
        <ele>29</ele>
        <time>2022-06-07T05:10:41Z</time>
      </trkpt>
      <trkpt lat="47.07961" lon="-1.26134">
        <ele>27</ele>
        <time>2022-06-07T05:11:50Z</time>
      </trkpt>
      <trkpt lat="47.07956" lon="-1.26149">
        <ele>27</ele>
        <time>2022-06-07T05:12:05Z</time>
      </trkpt>
      <trkpt lat="47.07963" lon="-1.26164">
        <ele>27</ele>
        <time>2022-06-07T05:12:22Z</time>
      </trkpt>
      <trkpt lat="47.07978" lon="-1.2618">
        <ele>26</ele>
        <time>2022-06-07T05:12:46Z</time>
      </trkpt>
      <trkpt lat="47.07989" lon="-1.26199">
        <ele>25</ele>
        <time>2022-06-07T05:13:09Z</time>
      </trkpt>
      <trkpt lat="47.07993" lon="-1.26211">
        <ele>24</ele>
        <time>2022-06-07T05:13:21Z</time>
      </trkpt>
      <trkpt lat="47.07998" lon="-1.26214">
        <ele>24</ele>
        <time>2022-06-07T05:13:29Z</time>
      </trkpt>
      <trkpt lat="47.0799" lon="-1.26222">
        <ele>24</ele>
        <time>2022-06-07T05:13:41Z</time>
      </trkpt>
      <trkpt lat="47.07982" lon="-1.26226">
        <ele>24</ele>
        <time>2022-06-07T05:13:53Z</time>
      </trkpt>
      <trkpt lat="47.07979" lon="-1.26236">
        <ele>24</ele>
        <time>2022-06-07T05:14:03Z</time>
      </trkpt>
      <trkpt lat="47.07988" lon="-1.26251">
        <ele>23</ele>
        <time>2022-06-07T05:14:21Z</time>
      </trkpt>
      <trkpt lat="47.07987" lon="-1.26254">
        <ele>23</ele>
        <time>2022-06-07T05:14:24Z</time>
      </trkpt>
      <trkpt lat="47.07999" lon="-1.26239">
        <ele>23</ele>
        <time>2022-06-07T05:14:45Z</time>
      </trkpt>
      <trkpt lat="47.08011" lon="-1.26231">
        <ele>24</ele>
        <time>2022-06-07T05:15:02Z</time>
      </trkpt>
      <trkpt lat="47.08015" lon="-1.26244">
        <ele>24</ele>
        <time>2022-06-07T05:15:15Z</time>
      </trkpt>
      <trkpt lat="47.08025" lon="-1.26259">
        <ele>24</ele>
        <time>2022-06-07T05:15:34Z</time>
      </trkpt>
      <trkpt lat="47.08039" lon="-1.26272">
        <ele>25</ele>
        <time>2022-06-07T05:15:57Z</time>
      </trkpt>
      <trkpt lat="47.08053" lon="-1.26279">
        <ele>26</ele>
        <time>2022-06-07T05:16:16Z</time>
      </trkpt>
      <trkpt lat="47.08072" lon="-1.263">
        <ele>26</ele>
        <time>2022-06-07T05:16:48Z</time>
      </trkpt>
      <trkpt lat="47.08113" lon="-1.26328">
        <ele>26</ele>
        <time>2022-06-07T05:17:48Z</time>
      </trkpt>
      <trkpt lat="47.08123" lon="-1.26341">
        <ele>26</ele>
        <time>2022-06-07T05:18:06Z</time>
      </trkpt>
      <trkpt lat="47.08139" lon="-1.26349">
        <ele>26</ele>
        <time>2022-06-07T05:18:29Z</time>
      </trkpt>
      <trkpt lat="47.08154" lon="-1.26368">
        <ele>26</ele>
        <time>2022-06-07T05:18:55Z</time>
      </trkpt>
      <trkpt lat="47.0818" lon="-1.26391">
        <ele>25</ele>
        <time>2022-06-07T05:19:36Z</time>
      </trkpt>
      <trkpt lat="47.08187" lon="-1.26401">
        <ele>24</ele>
        <time>2022-06-07T05:19:49Z</time>
      </trkpt>
      <trkpt lat="47.08199" lon="-1.26408">
        <ele>23</ele>
        <time>2022-06-07T05:20:06Z</time>
      </trkpt>
      <trkpt lat="47.08204" lon="-1.26416">
        <ele>23</ele>
        <time>2022-06-07T05:20:16Z</time>
      </trkpt>
      <trkpt lat="47.08233" lon="-1.26425">
        <ele>23</ele>
        <time>2022-06-07T05:20:55Z</time>
      </trkpt>
      <trkpt lat="47.08242" lon="-1.26431">
        <ele>23</ele>
        <time>2022-06-07T05:21:09Z</time>
      </trkpt>
      <trkpt lat="47.08268" lon="-1.26458">
        <ele>23</ele>
        <time>2022-06-07T05:21:51Z</time>
      </trkpt>
      <trkpt lat="47.08286" lon="-1.26484">
        <ele>24</ele>
        <time>2022-06-07T05:22:25Z</time>
      </trkpt>
      <trkpt lat="47.08292" lon="-1.26501">
        <ele>24</ele>
        <time>2022-06-07T05:22:42Z</time>
      </trkpt>
      <trkpt lat="47.0831" lon="-1.26536">
        <ele>24</ele>
        <time>2022-06-07T05:23:22Z</time>
      </trkpt>
      <trkpt lat="47.08328" lon="-1.26557">
        <ele>22</ele>
        <time>2022-06-07T05:23:53Z</time>
      </trkpt>
      <trkpt lat="47.08321" lon="-1.26578">
        <ele>21</ele>
        <time>2022-06-07T05:24:14Z</time>
      </trkpt>
      <trkpt lat="47.08339" lon="-1.26547">
        <ele>23</ele>
        <time>2022-06-07T05:24:51Z</time>
      </trkpt>
      <trkpt lat="47.08345" lon="-1.26545">
        <ele>24</ele>
        <time>2022-06-07T05:24:59Z</time>
      </trkpt>
      <trkpt lat="47.08354" lon="-1.26551">
        <ele>24</ele>
        <time>2022-06-07T05:25:12Z</time>
      </trkpt>
      <trkpt lat="47.08342" lon="-1.2655">
        <ele>23</ele>
        <time>2022-06-07T05:25:28Z</time>
      </trkpt>
      <trkpt lat="47.0833" lon="-1.26558">
        <ele>22</ele>
        <time>2022-06-07T05:25:46Z</time>
      </trkpt>
      <trkpt lat="47.08319" lon="-1.26545">
        <ele>23</ele>
        <time>2022-06-07T05:26:05Z</time>
      </trkpt>
      <trkpt lat="47.08306" lon="-1.26523">
        <ele>24</ele>
        <time>2022-06-07T05:26:31Z</time>
      </trkpt>
      <trkpt lat="47.08296" lon="-1.26494">
        <ele>24</ele>
        <time>2022-06-07T05:27:01Z</time>
      </trkpt>
      <trkpt lat="47.08297" lon="-1.26473">
        <ele>25</ele>
        <time>2022-06-07T05:27:20Z</time>
      </trkpt>
      <trkpt lat="47.08308" lon="-1.26458">
        <ele>25</ele>
        <time>2022-06-07T05:27:40Z</time>
      </trkpt>
      <trkpt lat="47.08341" lon="-1.26445">
        <ele>28</ele>
        <time>2022-06-07T05:28:26Z</time>
      </trkpt>
      <trkpt lat="47.08378" lon="-1.26441">
        <ele>31</ele>
        <time>2022-06-07T05:29:15Z</time>
      </trkpt>
      <trkpt lat="47.08412" lon="-1.26419">
        <ele>34</ele>
        <time>2022-06-07T05:30:05Z</time>
      </trkpt>
      <trkpt lat="47.08448" lon="-1.26383">
        <ele>35</ele>
        <time>2022-06-07T05:31:03Z</time>
      </trkpt>
      <trkpt lat="47.08474" lon="-1.26345">
        <ele>37</ele>
        <time>2022-06-07T05:31:52Z</time>
      </trkpt>
      <trkpt lat="47.08482" lon="-1.26326">
        <ele>37</ele>
        <time>2022-06-07T05:32:12Z</time>
      </trkpt>
      <trkpt lat="47.0849" lon="-1.26322">
        <ele>37</ele>
        <time>2022-06-07T05:32:23Z</time>
      </trkpt>
      <trkpt lat="47.08518" lon="-1.26427">
        <ele>39</ele>
        <time>2022-06-07T05:34:06Z</time>
      </trkpt>
      <trkpt lat="47.08532" lon="-1.2646">
        <ele>38</ele>
        <time>2022-06-07T05:34:41Z</time>
      </trkpt>
      <trkpt lat="47.08553" lon="-1.26523">
        <ele>37</ele>
        <time>2022-06-07T05:35:45Z</time>
      </trkpt>
      <trkpt lat="47.08566" lon="-1.26576">
        <ele>36</ele>
        <time>2022-06-07T05:36:36Z</time>
      </trkpt>
      <trkpt lat="47.08577" lon="-1.26602">
        <ele>37</ele>
        <time>2022-06-07T05:37:04Z</time>
      </trkpt>
      <trkpt lat="47.08595" lon="-1.26596">
        <ele>37</ele>
        <time>2022-06-07T05:37:29Z</time>
      </trkpt>
      <trkpt lat="47.08602" lon="-1.26606">
        <ele>37</ele>
        <time>2022-06-07T05:37:42Z</time>
      </trkpt>
      <trkpt lat="47.08604" lon="-1.26638">
        <ele>37</ele>
        <time>2022-06-07T05:38:11Z</time>
      </trkpt>
      <trkpt lat="47.08625" lon="-1.26705">
        <ele>37</ele>
        <time>2022-06-07T05:39:18Z</time>
      </trkpt>
      <trkpt lat="47.08633" lon="-1.26739">
        <ele>36</ele>
        <time>2022-06-07T05:39:50Z</time>
      </trkpt>
      <trkpt lat="47.08651" lon="-1.26757">
        <ele>37</ele>
        <time>2022-06-07T05:40:20Z</time>
      </trkpt>
      <trkpt lat="47.08669" lon="-1.2676">
        <ele>37</ele>
        <time>2022-06-07T05:40:44Z</time>
      </trkpt>
      <trkpt lat="47.08684" lon="-1.26783">
        <ele>36</ele>
        <time>2022-06-07T05:41:13Z</time>
      </trkpt>
      <trkpt lat="47.08689" lon="-1.2678">
        <ele>36</ele>
        <time>2022-06-07T05:41:20Z</time>
      </trkpt>
      <trkpt lat="47.08747" lon="-1.26685">
        <ele>36</ele>
        <time>2022-06-07T05:43:16Z</time>
      </trkpt>
      <trkpt lat="47.08778" lon="-1.26628">
        <ele>37</ele>
        <time>2022-06-07T05:44:22Z</time>
      </trkpt>
      <trkpt lat="47.08811" lon="-1.26578">
        <ele>37</ele>
        <time>2022-06-07T05:45:25Z</time>
      </trkpt>
      <trkpt lat="47.08851" lon="-1.2653">
        <ele>37</ele>
        <time>2022-06-07T05:46:34Z</time>
      </trkpt>
      <trkpt lat="47.08897" lon="-1.26435">
        <ele>37</ele>
        <time>2022-06-07T05:48:20Z</time>
      </trkpt>
      <trkpt lat="47.08917" lon="-1.26402">
        <ele>36</ele>
        <time>2022-06-07T05:49:00Z</time>
      </trkpt>
      <trkpt lat="47.08931" lon="-1.26365">
        <ele>35</ele>
        <time>2022-06-07T05:49:39Z</time>
      </trkpt>
      <trkpt lat="47.08961" lon="-1.26258">
        <ele>33</ele>
        <time>2022-06-07T05:51:24Z</time>
      </trkpt>
      <trkpt lat="47.08971" lon="-1.26205">
        <ele>33</ele>
        <time>2022-06-07T05:52:14Z</time>
      </trkpt>
      <trkpt lat="47.08973" lon="-1.26169">
        <ele>33</ele>
        <time>2022-06-07T05:52:47Z</time>
      </trkpt>
      <trkpt lat="47.0898" lon="-1.26144">
        <ele>33</ele>
        <time>2022-06-07T05:53:11Z</time>
      </trkpt>
      <trkpt lat="47.09011" lon="-1.26077">
        <ele>30</ele>
        <time>2022-06-07T05:54:25Z</time>
      </trkpt>
      <trkpt lat="47.0906" lon="-1.25944">
        <ele>29</ele>
        <time>2022-06-07T05:56:42Z</time>
      </trkpt>
      <trkpt lat="47.0907" lon="-1.25883">
        <ele>29</ele>
        <time>2022-06-07T05:57:39Z</time>
      </trkpt>
      <trkpt lat="47.09087" lon="-1.25829">
        <ele>28</ele>
        <time>2022-06-07T05:58:33Z</time>
      </trkpt>
      <trkpt lat="47.09095" lon="-1.25827">
        <ele>27</ele>
        <time>2022-06-07T05:58:44Z</time>
      </trkpt>
      <trkpt lat="47.09096" lon="-1.25829">
        <ele>27</ele>
        <time>2022-06-07T05:58:46Z</time>
      </trkpt>
      <trkpt lat="47.09097" lon="-1.25827">
        <ele>27</ele>
        <time>2022-06-07T05:58:49Z</time>
      </trkpt>
      <trkpt lat="47.09095" lon="-1.25829">
        <ele>27</ele>
        <time>2022-06-07T05:58:52Z</time>
      </trkpt>
      <trkpt lat="47.09095" lon="-1.25827">
        <ele>27</ele>
        <time>2022-06-07T05:58:54Z</time>
      </trkpt>
      <trkpt lat="47.09105" lon="-1.2581">
        <ele>26</ele>
        <time>2022-06-07T05:59:14Z</time>
      </trkpt>
      <trkpt lat="47.09128" lon="-1.2575">
        <ele>26</ele>
        <time>2022-06-07T06:00:17Z</time>
      </trkpt>
      <trkpt lat="47.09166" lon="-1.25687">
        <ele>26</ele>
        <time>2022-06-07T06:01:33Z</time>
      </trkpt>
      <trkpt lat="47.092" lon="-1.25636">
        <ele>26</ele>
        <time>2022-06-07T06:02:38Z</time>
      </trkpt>
      <trkpt lat="47.09237" lon="-1.25607">
        <ele>27</ele>
        <time>2022-06-07T06:03:34Z</time>
      </trkpt>
      <trkpt lat="47.09313" lon="-1.25527">
        <ele>29</ele>
        <time>2022-06-07T06:05:39Z</time>
      </trkpt>
      <trkpt lat="47.09323" lon="-1.25499">
        <ele>29</ele>
        <time>2022-06-07T06:06:07Z</time>
      </trkpt>
      <trkpt lat="47.0933" lon="-1.25454">
        <ele>31</ele>
        <time>2022-06-07T06:06:49Z</time>
      </trkpt>
      <trkpt lat="47.09363" lon="-1.25334">
        <ele>34</ele>
        <time>2022-06-07T06:08:47Z</time>
      </trkpt>
      <trkpt lat="47.0937" lon="-1.25297">
        <ele>34</ele>
        <time>2022-06-07T06:09:22Z</time>
      </trkpt>
      <trkpt lat="47.09365" lon="-1.25184">
        <ele>37</ele>
        <time>2022-06-07T06:11:05Z</time>
      </trkpt>
      <trkpt lat="47.09368" lon="-1.25146">
        <ele>37</ele>
        <time>2022-06-07T06:11:39Z</time>
      </trkpt>
      <trkpt lat="47.09377" lon="-1.25083">
        <ele>36</ele>
        <time>2022-06-07T06:12:38Z</time>
      </trkpt>
      <trkpt lat="47.09425" lon="-1.24893">
        <ele>34</ele>
        <time>2022-06-07T06:15:42Z</time>
      </trkpt>
      <trkpt lat="47.09462" lon="-1.24778">
        <ele>33</ele>
        <time>2022-06-07T06:17:38Z</time>
      </trkpt>
      <trkpt lat="47.09464" lon="-1.24749">
        <ele>33</ele>
        <time>2022-06-07T06:18:04Z</time>
      </trkpt>
      <trkpt lat="47.09458" lon="-1.24745">
        <ele>34</ele>
        <time>2022-06-07T06:18:13Z</time>
      </trkpt>
      <trkpt lat="47.09447" lon="-1.24743">
        <ele>34</ele>
        <time>2022-06-07T06:18:28Z</time>
      </trkpt>
      <trkpt lat="47.09401" lon="-1.24719">
        <ele>37</ele>
        <time>2022-06-07T06:19:33Z</time>
      </trkpt>
      <trkpt lat="47.09316" lon="-1.24651">
        <ele>39</ele>
        <time>2022-06-07T06:21:42Z</time>
      </trkpt>
      <trkpt lat="47.09303" lon="-1.24631">
        <ele>40</ele>
        <time>2022-06-07T06:22:07Z</time>
      </trkpt>
      <trkpt lat="47.09312" lon="-1.24596">
        <ele>40</ele>
        <time>2022-06-07T06:22:41Z</time>
      </trkpt>
      <trkpt lat="47.09323" lon="-1.24527">
        <ele>40</ele>
        <time>2022-06-07T06:23:46Z</time>
      </trkpt>
      <trkpt lat="47.09323" lon="-1.24454">
        <ele>40</ele>
        <time>2022-06-07T06:24:52Z</time>
      </trkpt>
      <trkpt lat="47.0932" lon="-1.24423">
        <ele>41</ele>
        <time>2022-06-07T06:25:20Z</time>
      </trkpt>
      <trkpt lat="47.09323" lon="-1.24388">
        <ele>41</ele>
        <time>2022-06-07T06:25:52Z</time>
      </trkpt>
      <trkpt lat="47.0932" lon="-1.24332">
        <ele>42</ele>
        <time>2022-06-07T06:26:43Z</time>
      </trkpt>
      <trkpt lat="47.09335" lon="-1.24238">
        <ele>44</ele>
        <time>2022-06-07T06:28:11Z</time>
      </trkpt>
      <trkpt lat="47.09343" lon="-1.24211">
        <ele>43</ele>
        <time>2022-06-07T06:28:38Z</time>
      </trkpt>
      <trkpt lat="47.09346" lon="-1.24225">
        <ele>43</ele>
        <time>2022-06-07T06:28:51Z</time>
      </trkpt>
      <trkpt lat="47.09365" lon="-1.24216">
        <ele>39</ele>
        <time>2022-06-07T06:29:18Z</time>
      </trkpt>
      <trkpt lat="47.09374" lon="-1.24206">
        <ele>38</ele>
        <time>2022-06-07T06:29:33Z</time>
      </trkpt>
      <trkpt lat="47.09383" lon="-1.24171">
        <ele>36</ele>
        <time>2022-06-07T06:30:07Z</time>
      </trkpt>
      <trkpt lat="47.09393" lon="-1.24156">
        <ele>34</ele>
        <time>2022-06-07T06:30:26Z</time>
      </trkpt>
      <trkpt lat="47.09396" lon="-1.24136">
        <ele>33</ele>
        <time>2022-06-07T06:30:45Z</time>
      </trkpt>
      <trkpt lat="47.09404" lon="-1.24125">
        <ele>31</ele>
        <time>2022-06-07T06:30:59Z</time>
      </trkpt>
      <trkpt lat="47.09405" lon="-1.24117">
        <ele>31</ele>
        <time>2022-06-07T06:31:07Z</time>
      </trkpt>
      <trkpt lat="47.09398" lon="-1.24069">
        <ele>33</ele>
        <time>2022-06-07T06:31:51Z</time>
      </trkpt>
      <trkpt lat="47.09402" lon="-1.24039">
        <ele>34</ele>
        <time>2022-06-07T06:32:19Z</time>
      </trkpt>
      <trkpt lat="47.09406" lon="-1.24023">
        <ele>34</ele>
        <time>2022-06-07T06:32:34Z</time>
      </trkpt>
      <trkpt lat="47.09417" lon="-1.23997">
        <ele>33</ele>
        <time>2022-06-07T06:33:02Z</time>
      </trkpt>
      <trkpt lat="47.09444" lon="-1.23947">
        <ele>36</ele>
        <time>2022-06-07T06:34:00Z</time>
      </trkpt>
      <trkpt lat="47.09477" lon="-1.23914">
        <ele>35</ele>
        <time>2022-06-07T06:34:53Z</time>
      </trkpt>
      <trkpt lat="47.0949" lon="-1.23896">
        <ele>36</ele>
        <time>2022-06-07T06:35:17Z</time>
      </trkpt>
      <trkpt lat="47.09504" lon="-1.23883">
        <ele>37</ele>
        <time>2022-06-07T06:35:39Z</time>
      </trkpt>
      <trkpt lat="47.09526" lon="-1.23851">
        <ele>38</ele>
        <time>2022-06-07T06:36:21Z</time>
      </trkpt>
      <trkpt lat="47.09531" lon="-1.23838">
        <ele>39</ele>
        <time>2022-06-07T06:36:34Z</time>
      </trkpt>
      <trkpt lat="47.09541" lon="-1.23827">
        <ele>39</ele>
        <time>2022-06-07T06:36:51Z</time>
      </trkpt>
      <trkpt lat="47.09597" lon="-1.23833">
        <ele>33</ele>
        <time>2022-06-07T06:38:06Z</time>
      </trkpt>
      <trkpt lat="47.09607" lon="-1.23831">
        <ele>32</ele>
        <time>2022-06-07T06:38:19Z</time>
      </trkpt>
      <trkpt lat="47.09614" lon="-1.23823">
        <ele>32</ele>
        <time>2022-06-07T06:38:31Z</time>
      </trkpt>
      <trkpt lat="47.09612" lon="-1.23803">
        <ele>33</ele>
        <time>2022-06-07T06:38:50Z</time>
      </trkpt>
      <trkpt lat="47.09616" lon="-1.23784">
        <ele>33</ele>
        <time>2022-06-07T06:39:08Z</time>
      </trkpt>
      <trkpt lat="47.09611" lon="-1.23739">
        <ele>34</ele>
        <time>2022-06-07T06:39:49Z</time>
      </trkpt>
      <trkpt lat="47.09612" lon="-1.23717">
        <ele>34</ele>
        <time>2022-06-07T06:40:09Z</time>
      </trkpt>
      <trkpt lat="47.09607" lon="-1.23668">
        <ele>36</ele>
        <time>2022-06-07T06:40:54Z</time>
      </trkpt>
      <trkpt lat="47.09603" lon="-1.23656">
        <ele>37</ele>
        <time>2022-06-07T06:41:06Z</time>
      </trkpt>
      <trkpt lat="47.09604" lon="-1.23629">
        <ele>38</ele>
        <time>2022-06-07T06:41:31Z</time>
      </trkpt>
      <trkpt lat="47.096" lon="-1.23609">
        <ele>39</ele>
        <time>2022-06-07T06:41:50Z</time>
      </trkpt>
      <trkpt lat="47.09598" lon="-1.23551">
        <ele>39</ele>
        <time>2022-06-07T06:42:42Z</time>
      </trkpt>
      <trkpt lat="47.096" lon="-1.23525">
        <ele>39</ele>
        <time>2022-06-07T06:43:06Z</time>
      </trkpt>
      <trkpt lat="47.0961" lon="-1.23506">
        <ele>37</ele>
        <time>2022-06-07T06:43:28Z</time>
      </trkpt>
      <trkpt lat="47.09619" lon="-1.23412">
        <ele>38</ele>
        <time>2022-06-07T06:44:54Z</time>
      </trkpt>
      <trkpt lat="47.09624" lon="-1.23391">
        <ele>38</ele>
        <time>2022-06-07T06:45:15Z</time>
      </trkpt>
      <trkpt lat="47.09643" lon="-1.23366">
        <ele>34</ele>
        <time>2022-06-07T06:45:49Z</time>
      </trkpt>
      <trkpt lat="47.09639" lon="-1.23341">
        <ele>36</ele>
        <time>2022-06-07T06:46:12Z</time>
      </trkpt>
      <trkpt lat="47.09637" lon="-1.23286">
        <ele>40</ele>
        <time>2022-06-07T06:47:02Z</time>
      </trkpt>
      <trkpt lat="47.09649" lon="-1.23262">
        <ele>39</ele>
        <time>2022-06-07T06:47:29Z</time>
      </trkpt>
      <trkpt lat="47.09661" lon="-1.2326">
        <ele>36</ele>
        <time>2022-06-07T06:47:45Z</time>
      </trkpt>
      <trkpt lat="47.09668" lon="-1.23256">
        <ele>35</ele>
        <time>2022-06-07T06:47:55Z</time>
      </trkpt>
      <trkpt lat="47.09664" lon="-1.23253">
        <ele>36</ele>
        <time>2022-06-07T06:48:01Z</time>
      </trkpt>
      <trkpt lat="47.09665" lon="-1.23244">
        <ele>37</ele>
        <time>2022-06-07T06:48:09Z</time>
      </trkpt>
      <trkpt lat="47.09673" lon="-1.23224">
        <ele>39</ele>
        <time>2022-06-07T06:48:30Z</time>
      </trkpt>
      <trkpt lat="47.09706" lon="-1.23226">
        <ele>35</ele>
        <time>2022-06-07T06:49:15Z</time>
      </trkpt>
      <trkpt lat="47.0971" lon="-1.23224">
        <ele>35</ele>
        <time>2022-06-07T06:49:20Z</time>
      </trkpt>
      <trkpt lat="47.09711" lon="-1.23215">
        <ele>36</ele>
        <time>2022-06-07T06:49:28Z</time>
      </trkpt>
      <trkpt lat="47.09704" lon="-1.23203">
        <ele>39</ele>
        <time>2022-06-07T06:49:43Z</time>
      </trkpt>
      <trkpt lat="47.09723" lon="-1.23189">
        <ele>39</ele>
        <time>2022-06-07T06:50:11Z</time>
      </trkpt>
      <trkpt lat="47.0973" lon="-1.2319">
        <ele>38</ele>
        <time>2022-06-07T06:50:21Z</time>
      </trkpt>
      <trkpt lat="47.0974" lon="-1.23196">
        <ele>36</ele>
        <time>2022-06-07T06:50:35Z</time>
      </trkpt>
      <trkpt lat="47.0975" lon="-1.23191">
        <ele>35</ele>
        <time>2022-06-07T06:50:49Z</time>
      </trkpt>
      <trkpt lat="47.09755" lon="-1.23194">
        <ele>35</ele>
        <time>2022-06-07T06:50:56Z</time>
      </trkpt>
      <trkpt lat="47.09759" lon="-1.23191">
        <ele>35</ele>
        <time>2022-06-07T06:51:02Z</time>
      </trkpt>
      <trkpt lat="47.09759" lon="-1.23184">
        <ele>36</ele>
        <time>2022-06-07T06:51:09Z</time>
      </trkpt>
      <trkpt lat="47.09771" lon="-1.23177">
        <ele>36</ele>
        <time>2022-06-07T06:51:26Z</time>
      </trkpt>
      <trkpt lat="47.0978" lon="-1.23179">
        <ele>35</ele>
        <time>2022-06-07T06:51:38Z</time>
      </trkpt>
      <trkpt lat="47.09811" lon="-1.23209">
        <ele>30</ele>
        <time>2022-06-07T06:52:28Z</time>
      </trkpt>
      <trkpt lat="47.09813" lon="-1.23249">
        <ele>26</ele>
        <time>2022-06-07T06:53:04Z</time>
      </trkpt>
      <trkpt lat="47.09828" lon="-1.23297">
        <ele>31</ele>
        <time>2022-06-07T06:53:52Z</time>
      </trkpt>
      <trkpt lat="47.09829" lon="-1.23312">
        <ele>33</ele>
        <time>2022-06-07T06:54:06Z</time>
      </trkpt>
      <trkpt lat="47.09824" lon="-1.23314">
        <ele>33</ele>
        <time>2022-06-07T06:54:13Z</time>
      </trkpt>
      <trkpt lat="47.09825" lon="-1.23318">
        <ele>34</ele>
        <time>2022-06-07T06:54:16Z</time>
      </trkpt>
      <trkpt lat="47.09832" lon="-1.23318">
        <ele>34</ele>
        <time>2022-06-07T06:54:26Z</time>
      </trkpt>
      <trkpt lat="47.09834" lon="-1.23321">
        <ele>35</ele>
        <time>2022-06-07T06:54:30Z</time>
      </trkpt>
      <trkpt lat="47.09832" lon="-1.23309">
        <ele>33</ele>
        <time>2022-06-07T06:54:41Z</time>
      </trkpt>
      <trkpt lat="47.0982" lon="-1.2332">
        <ele>34</ele>
        <time>2022-06-07T06:55:00Z</time>
      </trkpt>
      <trkpt lat="47.09797" lon="-1.23327">
        <ele>33</ele>
        <time>2022-06-07T06:55:31Z</time>
      </trkpt>
      <trkpt lat="47.09768" lon="-1.23344">
        <ele>32</ele>
        <time>2022-06-07T06:56:13Z</time>
      </trkpt>
      <trkpt lat="47.09749" lon="-1.23349">
        <ele>31</ele>
        <time>2022-06-07T06:56:38Z</time>
      </trkpt>
      <trkpt lat="47.09737" lon="-1.23357">
        <ele>31</ele>
        <time>2022-06-07T06:56:56Z</time>
      </trkpt>
      <trkpt lat="47.09724" lon="-1.23362">
        <ele>31</ele>
        <time>2022-06-07T06:57:14Z</time>
      </trkpt>
      <trkpt lat="47.0967" lon="-1.23414">
        <ele>26</ele>
        <time>2022-06-07T06:58:40Z</time>
      </trkpt>
      <trkpt lat="47.09659" lon="-1.23443">
        <ele>28</ele>
        <time>2022-06-07T06:59:10Z</time>
      </trkpt>
      <trkpt lat="47.09648" lon="-1.23494">
        <ele>30</ele>
        <time>2022-06-07T06:59:59Z</time>
      </trkpt>
      <trkpt lat="47.09639" lon="-1.23558">
        <ele>32</ele>
        <time>2022-06-07T07:00:58Z</time>
      </trkpt>
      <trkpt lat="47.09639" lon="-1.23593">
        <ele>32</ele>
        <time>2022-06-07T07:01:30Z</time>
      </trkpt>
      <trkpt lat="47.09644" lon="-1.23658">
        <ele>31</ele>
        <time>2022-06-07T07:02:30Z</time>
      </trkpt>
      <trkpt lat="47.09642" lon="-1.23651">
        <ele>31</ele>
        <time>2022-06-07T07:02:36Z</time>
      </trkpt>
      <trkpt lat="47.09649" lon="-1.23695">
        <ele>30</ele>
        <time>2022-06-07T07:03:17Z</time>
      </trkpt>
      <trkpt lat="47.09647" lon="-1.23722">
        <ele>30</ele>
        <time>2022-06-07T07:03:42Z</time>
      </trkpt>
      <trkpt lat="47.09652" lon="-1.23806">
        <ele>30</ele>
        <time>2022-06-07T07:04:59Z</time>
      </trkpt>
      <trkpt lat="47.09648" lon="-1.23835">
        <ele>31</ele>
        <time>2022-06-07T07:05:26Z</time>
      </trkpt>
      <trkpt lat="47.09617" lon="-1.23914">
        <ele>30</ele>
        <time>2022-06-07T07:06:48Z</time>
      </trkpt>
      <trkpt lat="47.09609" lon="-1.23925">
        <ele>30</ele>
        <time>2022-06-07T07:07:03Z</time>
      </trkpt>
      <trkpt lat="47.0956" lon="-1.2398">
        <ele>33</ele>
        <time>2022-06-07T07:08:25Z</time>
      </trkpt>
      <trkpt lat="47.09535" lon="-1.24">
        <ele>31</ele>
        <time>2022-06-07T07:09:03Z</time>
      </trkpt>
      <trkpt lat="47.09523" lon="-1.24004">
        <ele>29</ele>
        <time>2022-06-07T07:09:20Z</time>
      </trkpt>
      <trkpt lat="47.09505" lon="-1.24028">
        <ele>29</ele>
        <time>2022-06-07T07:09:52Z</time>
      </trkpt>
      <trkpt lat="47.09491" lon="-1.24041">
        <ele>30</ele>
        <time>2022-06-07T07:10:14Z</time>
      </trkpt>
      <trkpt lat="47.09503" lon="-1.24092">
        <ele>34</ele>
        <time>2022-06-07T07:11:03Z</time>
      </trkpt>
      <trkpt lat="47.09496" lon="-1.241">
        <ele>34</ele>
        <time>2022-06-07T07:11:15Z</time>
      </trkpt>
      <trkpt lat="47.09496" lon="-1.24118">
        <ele>34</ele>
        <time>2022-06-07T07:11:32Z</time>
      </trkpt>
      <trkpt lat="47.0951" lon="-1.24166">
        <ele>35</ele>
        <time>2022-06-07T07:12:19Z</time>
      </trkpt>
      <trkpt lat="47.09518" lon="-1.24184">
        <ele>35</ele>
        <time>2022-06-07T07:12:38Z</time>
      </trkpt>
      <trkpt lat="47.09528" lon="-1.24197">
        <ele>36</ele>
        <time>2022-06-07T07:12:56Z</time>
      </trkpt>
      <trkpt lat="47.09531" lon="-1.24234">
        <ele>35</ele>
        <time>2022-06-07T07:13:30Z</time>
      </trkpt>
      <trkpt lat="47.0953" lon="-1.24277">
        <ele>34</ele>
        <time>2022-06-07T07:14:09Z</time>
      </trkpt>
      <trkpt lat="47.09553" lon="-1.24302">
        <ele>35</ele>
        <time>2022-06-07T07:14:47Z</time>
      </trkpt>
      <trkpt lat="47.09606" lon="-1.24344">
        <ele>39</ele>
        <time>2022-06-07T07:16:08Z</time>
      </trkpt>
      <trkpt lat="47.09612" lon="-1.24364">
        <ele>39</ele>
        <time>2022-06-07T07:16:28Z</time>
      </trkpt>
      <trkpt lat="47.09625" lon="-1.24375">
        <ele>40</ele>
        <time>2022-06-07T07:16:48Z</time>
      </trkpt>
      <trkpt lat="47.0965" lon="-1.24389">
        <ele>41</ele>
        <time>2022-06-07T07:17:23Z</time>
      </trkpt>
      <trkpt lat="47.0968" lon="-1.24415">
        <ele>42</ele>
        <time>2022-06-07T07:18:10Z</time>
      </trkpt>
      <trkpt lat="47.09717" lon="-1.24438">
        <ele>44</ele>
        <time>2022-06-07T07:19:03Z</time>
      </trkpt>
      <trkpt lat="47.09765" lon="-1.24463">
        <ele>46</ele>
        <time>2022-06-07T07:20:11Z</time>
      </trkpt>
      <trkpt lat="47.09775" lon="-1.24466">
        <ele>46</ele>
        <time>2022-06-07T07:20:25Z</time>
      </trkpt>
      <trkpt lat="47.09782" lon="-1.24479">
        <ele>46</ele>
        <time>2022-06-07T07:20:40Z</time>
      </trkpt>
      <trkpt lat="47.09782" lon="-1.24477">
        <ele>46</ele>
        <time>2022-06-07T07:20:42Z</time>
      </trkpt>
      <trkpt lat="47.09788" lon="-1.24474">
        <ele>46</ele>
        <time>2022-06-07T07:20:50Z</time>
      </trkpt>
      <trkpt lat="47.09805" lon="-1.24481">
        <ele>45</ele>
        <time>2022-06-07T07:21:14Z</time>
      </trkpt>
      <trkpt lat="47.09836" lon="-1.24499">
        <ele>44</ele>
        <time>2022-06-07T07:21:58Z</time>
      </trkpt>
      <trkpt lat="47.09829" lon="-1.24544">
        <ele>42</ele>
        <time>2022-06-07T07:22:40Z</time>
      </trkpt>
      <trkpt lat="47.09821" lon="-1.24623">
        <ele>38</ele>
        <time>2022-06-07T07:23:53Z</time>
      </trkpt>
      <trkpt lat="47.09826" lon="-1.24664">
        <ele>35</ele>
        <time>2022-06-07T07:24:31Z</time>
      </trkpt>
      <trkpt lat="47.0985" lon="-1.24763">
        <ele>30</ele>
        <time>2022-06-07T07:26:06Z</time>
      </trkpt>
      <trkpt lat="47.09853" lon="-1.24794">
        <ele>29</ele>
        <time>2022-06-07T07:26:35Z</time>
      </trkpt>
      <trkpt lat="47.09852" lon="-1.24859">
        <ele>26</ele>
        <time>2022-06-07T07:27:34Z</time>
      </trkpt>
      <trkpt lat="47.09846" lon="-1.24947">
        <ele>24</ele>
        <time>2022-06-07T07:28:54Z</time>
      </trkpt>
      <trkpt lat="47.09849" lon="-1.2509">
        <ele>30</ele>
        <time>2022-06-07T07:31:04Z</time>
      </trkpt>
      <trkpt lat="47.09844" lon="-1.25125">
        <ele>32</ele>
        <time>2022-06-07T07:31:37Z</time>
      </trkpt>
      <trkpt lat="47.09817" lon="-1.25212">
        <ele>34</ele>
        <time>2022-06-07T07:33:03Z</time>
      </trkpt>
      <trkpt lat="47.09795" lon="-1.25272">
        <ele>33</ele>
        <time>2022-06-07T07:34:05Z</time>
      </trkpt>
      <trkpt lat="47.09787" lon="-1.25316">
        <ele>33</ele>
        <time>2022-06-07T07:34:47Z</time>
      </trkpt>
      <trkpt lat="47.09784" lon="-1.25318">
        <ele>33</ele>
        <time>2022-06-07T07:34:51Z</time>
      </trkpt>
      <trkpt lat="47.09754" lon="-1.25308">
        <ele>32</ele>
        <time>2022-06-07T07:35:32Z</time>
      </trkpt>
      <trkpt lat="47.09734" lon="-1.253">
        <ele>31</ele>
        <time>2022-06-07T07:36:00Z</time>
      </trkpt>
      <trkpt lat="47.09674" lon="-1.25268">
        <ele>27</ele>
        <time>2022-06-07T07:37:25Z</time>
      </trkpt>
      <trkpt lat="47.09659" lon="-1.25264">
        <ele>26</ele>
        <time>2022-06-07T07:37:45Z</time>
      </trkpt>
      <trkpt lat="47.09646" lon="-1.25264">
        <ele>25</ele>
        <time>2022-06-07T07:38:03Z</time>
      </trkpt>
      <trkpt lat="47.09619" lon="-1.25249">
        <ele>23</ele>
        <time>2022-06-07T07:38:41Z</time>
      </trkpt>
      <trkpt lat="47.09605" lon="-1.25249">
        <ele>22</ele>
        <time>2022-06-07T07:39:00Z</time>
      </trkpt>
      <trkpt lat="47.09581" lon="-1.25269">
        <ele>20</ele>
        <time>2022-06-07T07:39:37Z</time>
      </trkpt>
      <trkpt lat="47.09562" lon="-1.2529">
        <ele>22</ele>
        <time>2022-06-07T07:40:08Z</time>
      </trkpt>
      <trkpt lat="47.09553" lon="-1.25291">
        <ele>22</ele>
        <time>2022-06-07T07:40:20Z</time>
      </trkpt>
      <trkpt lat="47.09564" lon="-1.25321">
        <ele>21</ele>
        <time>2022-06-07T07:40:51Z</time>
      </trkpt>
      <trkpt lat="47.0957" lon="-1.25353">
        <ele>20</ele>
        <time>2022-06-07T07:41:22Z</time>
      </trkpt>
      <trkpt lat="47.09569" lon="-1.2546">
        <ele>21</ele>
        <time>2022-06-07T07:42:59Z</time>
      </trkpt>
      <trkpt lat="47.09562" lon="-1.2551">
        <ele>21</ele>
        <time>2022-06-07T07:43:45Z</time>
      </trkpt>
      <trkpt lat="47.09531" lon="-1.25562">
        <ele>21</ele>
        <time>2022-06-07T07:44:48Z</time>
      </trkpt>
      <trkpt lat="47.0951" lon="-1.25602">
        <ele>21</ele>
        <time>2022-06-07T07:45:34Z</time>
      </trkpt>
      <trkpt lat="47.09504" lon="-1.25618">
        <ele>21</ele>
        <time>2022-06-07T07:45:50Z</time>
      </trkpt>
      <trkpt lat="47.09502" lon="-1.25645">
        <ele>20</ele>
        <time>2022-06-07T07:46:15Z</time>
      </trkpt>
      <trkpt lat="47.09505" lon="-1.25676">
        <ele>19</ele>
        <time>2022-06-07T07:46:44Z</time>
      </trkpt>
      <trkpt lat="47.09503" lon="-1.25704">
        <ele>19</ele>
        <time>2022-06-07T07:47:09Z</time>
      </trkpt>
      <trkpt lat="47.09498" lon="-1.25729">
        <ele>19</ele>
        <time>2022-06-07T07:47:33Z</time>
      </trkpt>
      <trkpt lat="47.09497" lon="-1.25757">
        <ele>19</ele>
        <time>2022-06-07T07:47:58Z</time>
      </trkpt>
      <trkpt lat="47.09499" lon="-1.25781">
        <ele>19</ele>
        <time>2022-06-07T07:48:20Z</time>
      </trkpt>
      <trkpt lat="47.09498" lon="-1.25869">
        <ele>18</ele>
        <time>2022-06-07T07:49:40Z</time>
      </trkpt>
      <trkpt lat="47.09491" lon="-1.25933">
        <ele>19</ele>
        <time>2022-06-07T07:50:39Z</time>
      </trkpt>
      <trkpt lat="47.09476" lon="-1.25992">
        <ele>21</ele>
        <time>2022-06-07T07:51:36Z</time>
      </trkpt>
      <trkpt lat="47.09464" lon="-1.26017">
        <ele>23</ele>
        <time>2022-06-07T07:52:04Z</time>
      </trkpt>
      <trkpt lat="47.09453" lon="-1.2603">
        <ele>24</ele>
        <time>2022-06-07T07:52:23Z</time>
      </trkpt>
      <trkpt lat="47.09429" lon="-1.26048">
        <ele>25</ele>
        <time>2022-06-07T07:52:59Z</time>
      </trkpt>
      <trkpt lat="47.09425" lon="-1.26047">
        <ele>25</ele>
        <time>2022-06-07T07:53:04Z</time>
      </trkpt>
      <trkpt lat="47.09377" lon="-1.26058">
        <ele>25</ele>
        <time>2022-06-07T07:54:09Z</time>
      </trkpt>
      <trkpt lat="47.09359" lon="-1.26069">
        <ele>26</ele>
        <time>2022-06-07T07:54:35Z</time>
      </trkpt>
      <trkpt lat="47.09332" lon="-1.26078">
        <ele>26</ele>
        <time>2022-06-07T07:55:12Z</time>
      </trkpt>
      <trkpt lat="47.09316" lon="-1.26102">
        <ele>26</ele>
        <time>2022-06-07T07:55:43Z</time>
      </trkpt>
      <trkpt lat="47.09306" lon="-1.2611">
        <ele>26</ele>
        <time>2022-06-07T07:55:58Z</time>
      </trkpt>
      <trkpt lat="47.09275" lon="-1.26155">
        <ele>28</ele>
        <time>2022-06-07T07:56:56Z</time>
      </trkpt>
      <trkpt lat="47.09267" lon="-1.26181">
        <ele>28</ele>
        <time>2022-06-07T07:57:22Z</time>
      </trkpt>
      <trkpt lat="47.09268" lon="-1.26191">
        <ele>29</ele>
        <time>2022-06-07T07:57:31Z</time>
      </trkpt>
      <trkpt lat="47.09293" lon="-1.26231">
        <ele>31</ele>
        <time>2022-06-07T07:58:20Z</time>
      </trkpt>
      <trkpt lat="47.09294" lon="-1.26236">
        <ele>31</ele>
        <time>2022-06-07T07:58:25Z</time>
      </trkpt>
      <trkpt lat="47.0928" lon="-1.26267">
        <ele>31</ele>
        <time>2022-06-07T07:58:59Z</time>
      </trkpt>
      <trkpt lat="47.09241" lon="-1.26322">
        <ele>30</ele>
        <time>2022-06-07T08:00:11Z</time>
      </trkpt>
      <trkpt lat="47.09219" lon="-1.26358">
        <ele>29</ele>
        <time>2022-06-07T08:00:55Z</time>
      </trkpt>
      <trkpt lat="47.09216" lon="-1.26384">
        <ele>29</ele>
        <time>2022-06-07T08:01:19Z</time>
      </trkpt>
      <trkpt lat="47.09248" lon="-1.26447">
        <ele>31</ele>
        <time>2022-06-07T08:02:30Z</time>
      </trkpt>
      <trkpt lat="47.09249" lon="-1.26455">
        <ele>31</ele>
        <time>2022-06-07T08:02:38Z</time>
      </trkpt>
      <trkpt lat="47.09232" lon="-1.26454">
        <ele>30</ele>
        <time>2022-06-07T08:03:01Z</time>
      </trkpt>
      <trkpt lat="47.09177" lon="-1.2644">
        <ele>26</ele>
        <time>2022-06-07T08:04:15Z</time>
      </trkpt>
      <trkpt lat="47.09181" lon="-1.26412">
        <ele>26</ele>
        <time>2022-06-07T08:04:41Z</time>
      </trkpt>
      <trkpt lat="47.09177" lon="-1.26405">
        <ele>26</ele>
        <time>2022-06-07T08:04:49Z</time>
      </trkpt>
      <trkpt lat="47.09168" lon="-1.26399">
        <ele>25</ele>
        <time>2022-06-07T08:05:02Z</time>
      </trkpt>
      <trkpt lat="47.09164" lon="-1.26399">
        <ele>25</ele>
        <time>2022-06-07T08:05:08Z</time>
      </trkpt>
      <trkpt lat="47.09154" lon="-1.26403">
        <ele>24</ele>
        <time>2022-06-07T08:05:22Z</time>
      </trkpt>
      <trkpt lat="47.09149" lon="-1.26414">
        <ele>24</ele>
        <time>2022-06-07T08:05:34Z</time>
      </trkpt>
      <trkpt lat="47.09146" lon="-1.26433">
        <ele>24</ele>
        <time>2022-06-07T08:05:51Z</time>
      </trkpt>
      <trkpt lat="47.09136" lon="-1.26441">
        <ele>23</ele>
        <time>2022-06-07T08:06:07Z</time>
      </trkpt>
      <trkpt lat="47.09136" lon="-1.26429">
        <ele>23</ele>
        <time>2022-06-07T08:06:17Z</time>
      </trkpt>
      <trkpt lat="47.09133" lon="-1.26428">
        <ele>23</ele>
        <time>2022-06-07T08:06:22Z</time>
      </trkpt>
      <trkpt lat="47.09122" lon="-1.2644">
        <ele>22</ele>
        <time>2022-06-07T08:06:40Z</time>
      </trkpt>
      <trkpt lat="47.09117" lon="-1.26471">
        <ele>21</ele>
        <time>2022-06-07T08:07:09Z</time>
      </trkpt>
      <trkpt lat="47.091" lon="-1.26495">
        <ele>20</ele>
        <time>2022-06-07T08:07:40Z</time>
      </trkpt>
      <trkpt lat="47.09094" lon="-1.26487">
        <ele>20</ele>
        <time>2022-06-07T08:07:51Z</time>
      </trkpt>
      <trkpt lat="47.09083" lon="-1.26499">
        <ele>19</ele>
        <time>2022-06-07T08:08:09Z</time>
      </trkpt>
      <trkpt lat="47.0909" lon="-1.2649">
        <ele>19</ele>
        <time>2022-06-07T08:08:22Z</time>
      </trkpt>
      <trkpt lat="47.0909" lon="-1.26529">
        <ele>20</ele>
        <time>2022-06-07T08:08:57Z</time>
      </trkpt>
      <trkpt lat="47.09087" lon="-1.26555">
        <ele>19</ele>
        <time>2022-06-07T08:09:21Z</time>
      </trkpt>
      <trkpt lat="47.09074" lon="-1.26606">
        <ele>19</ele>
        <time>2022-06-07T08:10:11Z</time>
      </trkpt>
      <trkpt lat="47.09076" lon="-1.26612">
        <ele>19</ele>
        <time>2022-06-07T08:10:17Z</time>
      </trkpt>
      <trkpt lat="47.09073" lon="-1.26616">
        <ele>19</ele>
        <time>2022-06-07T08:10:22Z</time>
      </trkpt>
      <trkpt lat="47.09074" lon="-1.26618">
        <ele>19</ele>
        <time>2022-06-07T08:10:24Z</time>
      </trkpt>
      <trkpt lat="47.09051" lon="-1.26692">
        <ele>20</ele>
        <time>2022-06-07T08:11:38Z</time>
      </trkpt>
      <trkpt lat="47.09046" lon="-1.26699">
        <ele>20</ele>
        <time>2022-06-07T08:11:48Z</time>
      </trkpt>
      <trkpt lat="47.09043" lon="-1.26734">
        <ele>21</ele>
        <time>2022-06-07T08:12:20Z</time>
      </trkpt>
      <trkpt lat="47.09034" lon="-1.26765">
        <ele>22</ele>
        <time>2022-06-07T08:12:50Z</time>
      </trkpt>
      <trkpt lat="47.0901" lon="-1.26816">
        <ele>22</ele>
        <time>2022-06-07T08:13:47Z</time>
      </trkpt>
      <trkpt lat="47.08969" lon="-1.26879">
        <ele>23</ele>
        <time>2022-06-07T08:15:06Z</time>
      </trkpt>
      <trkpt lat="47.0895" lon="-1.26931">
        <ele>23</ele>
        <time>2022-06-07T08:15:59Z</time>
      </trkpt>
      <trkpt lat="47.08952" lon="-1.26952">
        <ele>24</ele>
        <time>2022-06-07T08:16:19Z</time>
      </trkpt>
      <trkpt lat="47.08961" lon="-1.26982">
        <ele>26</ele>
        <time>2022-06-07T08:16:48Z</time>
      </trkpt>
      <trkpt lat="47.08956" lon="-1.27003">
        <ele>26</ele>
        <time>2022-06-07T08:17:09Z</time>
      </trkpt>
      <trkpt lat="47.08955" lon="-1.27027">
        <ele>26</ele>
        <time>2022-06-07T08:17:30Z</time>
      </trkpt>
      <trkpt lat="47.08954" lon="-1.27061">
        <ele>26</ele>
        <time>2022-06-07T08:18:01Z</time>
      </trkpt>
      <trkpt lat="47.08957" lon="-1.27111">
        <ele>27</ele>
        <time>2022-06-07T08:18:47Z</time>
      </trkpt>
      <trkpt lat="47.08966" lon="-1.2713">
        <ele>29</ele>
        <time>2022-06-07T08:19:08Z</time>
      </trkpt>
      <trkpt lat="47.09008" lon="-1.27178">
        <ele>32</ele>
        <time>2022-06-07T08:20:19Z</time>
      </trkpt>
      <trkpt lat="47.09014" lon="-1.27194">
        <ele>32</ele>
        <time>2022-06-07T08:20:36Z</time>
      </trkpt>
      <trkpt lat="47.09008" lon="-1.27221">
        <ele>32</ele>
        <time>2022-06-07T08:21:01Z</time>
      </trkpt>
      <trkpt lat="47.08997" lon="-1.27254">
        <ele>31</ele>
        <time>2022-06-07T08:21:35Z</time>
      </trkpt>
      <trkpt lat="47.08996" lon="-1.27286">
        <ele>31</ele>
        <time>2022-06-07T08:22:04Z</time>
      </trkpt>
      <trkpt lat="47.09003" lon="-1.27382">
        <ele>33</ele>
        <time>2022-06-07T08:23:32Z</time>
      </trkpt>
      <trkpt lat="47.09" lon="-1.27465">
        <ele>33</ele>
        <time>2022-06-07T08:24:47Z</time>
      </trkpt>
      <trkpt lat="47.08996" lon="-1.27486">
        <ele>33</ele>
        <time>2022-06-07T08:25:07Z</time>
      </trkpt>
      <trkpt lat="47.08989" lon="-1.27499">
        <ele>32</ele>
        <time>2022-06-07T08:25:22Z</time>
      </trkpt>
      <trkpt lat="47.08959" lon="-1.27487">
        <ele>31</ele>
        <time>2022-06-07T08:26:03Z</time>
      </trkpt>
      <trkpt lat="47.08945" lon="-1.27486">
        <ele>30</ele>
        <time>2022-06-07T08:26:22Z</time>
      </trkpt>
      <trkpt lat="47.08936" lon="-1.27488">
        <ele>30</ele>
        <time>2022-06-07T08:26:34Z</time>
      </trkpt>
      <trkpt lat="47.08936" lon="-1.27486">
        <ele>30</ele>
        <time>2022-06-07T08:26:36Z</time>
      </trkpt>
      <trkpt lat="47.08928" lon="-1.27492">
        <ele>29</ele>
        <time>2022-06-07T08:26:48Z</time>
      </trkpt>
      <trkpt lat="47.0891" lon="-1.27525">
        <ele>29</ele>
        <time>2022-06-07T08:27:27Z</time>
      </trkpt>
      <trkpt lat="47.08902" lon="-1.27549">
        <ele>29</ele>
        <time>2022-06-07T08:27:51Z</time>
      </trkpt>
      <trkpt lat="47.08886" lon="-1.2758">
        <ele>29</ele>
        <time>2022-06-07T08:28:26Z</time>
      </trkpt>
      <trkpt lat="47.0889" lon="-1.27587">
        <ele>29</ele>
        <time>2022-06-07T08:28:34Z</time>
      </trkpt>
      <trkpt lat="47.08886" lon="-1.27594">
        <ele>29</ele>
        <time>2022-06-07T08:28:43Z</time>
      </trkpt>
      <trkpt lat="47.08871" lon="-1.27587">
        <ele>28</ele>
        <time>2022-06-07T08:29:04Z</time>
      </trkpt>
      <trkpt lat="47.0887" lon="-1.27577">
        <ele>28</ele>
        <time>2022-06-07T08:29:13Z</time>
      </trkpt>
      <trkpt lat="47.08887" lon="-1.27516">
        <ele>26</ele>
        <time>2022-06-07T08:30:13Z</time>
      </trkpt>
      <trkpt lat="47.08896" lon="-1.27492">
        <ele>26</ele>
        <time>2022-06-07T08:30:38Z</time>
      </trkpt>
      <trkpt lat="47.08874" lon="-1.27407">
        <ele>23</ele>
        <time>2022-06-07T08:32:00Z</time>
      </trkpt>
      <trkpt lat="47.08852" lon="-1.2736">
        <ele>22</ele>
        <time>2022-06-07T08:32:52Z</time>
      </trkpt>
      <trkpt lat="47.08843" lon="-1.27354">
        <ele>21</ele>
        <time>2022-06-07T08:33:05Z</time>
      </trkpt>
      <trkpt lat="47.08837" lon="-1.27368">
        <ele>20</ele>
        <time>2022-06-07T08:33:20Z</time>
      </trkpt>
      <trkpt lat="47.08848" lon="-1.27421">
        <ele>20</ele>
        <time>2022-06-07T08:34:11Z</time>
      </trkpt>
      <trkpt lat="47.08852" lon="-1.27485">
        <ele>21</ele>
        <time>2022-06-07T08:35:09Z</time>
      </trkpt>
      <trkpt lat="47.08851" lon="-1.27512">
        <ele>22</ele>
        <time>2022-06-07T08:35:34Z</time>
      </trkpt>
      <trkpt lat="47.08837" lon="-1.27554">
        <ele>24</ele>
        <time>2022-06-07T08:36:16Z</time>
      </trkpt>
      <trkpt lat="47.08815" lon="-1.2758">
        <ele>25</ele>
        <time>2022-06-07T08:36:54Z</time>
      </trkpt>
      <trkpt lat="47.08787" lon="-1.27608">
        <ele>23</ele>
        <time>2022-06-07T08:37:39Z</time>
      </trkpt>
      <trkpt lat="47.08774" lon="-1.27631">
        <ele>21</ele>
        <time>2022-06-07T08:38:06Z</time>
      </trkpt>
      <trkpt lat="47.0876" lon="-1.27684">
        <ele>18</ele>
        <time>2022-06-07T08:38:58Z</time>
      </trkpt>
      <trkpt lat="47.08746" lon="-1.27694">
        <ele>17</ele>
        <time>2022-06-07T08:39:19Z</time>
      </trkpt>
      <trkpt lat="47.08739" lon="-1.27704">
        <ele>17</ele>
        <time>2022-06-07T08:39:32Z</time>
      </trkpt>
      <trkpt lat="47.08729" lon="-1.27747">
        <ele>17</ele>
        <time>2022-06-07T08:40:13Z</time>
      </trkpt>
      <trkpt lat="47.08726" lon="-1.27749">
        <ele>17</ele>
        <time>2022-06-07T08:40:17Z</time>
      </trkpt>
      <trkpt lat="47.08731" lon="-1.27725">
        <ele>17</ele>
        <time>2022-06-07T08:40:40Z</time>
      </trkpt>
      <trkpt lat="47.08746" lon="-1.27695">
        <ele>17</ele>
        <time>2022-06-07T08:41:14Z</time>
      </trkpt>
      <trkpt lat="47.08746" lon="-1.27684">
        <ele>17</ele>
        <time>2022-06-07T08:41:24Z</time>
      </trkpt>
      <trkpt lat="47.08753" lon="-1.27676">
        <ele>17</ele>
        <time>2022-06-07T08:41:36Z</time>
      </trkpt>
      <trkpt lat="47.08745" lon="-1.27681">
        <ele>17</ele>
        <time>2022-06-07T08:41:47Z</time>
      </trkpt>
      <trkpt lat="47.08732" lon="-1.27717">
        <ele>17</ele>
        <time>2022-06-07T08:42:24Z</time>
      </trkpt>
      <trkpt lat="47.08709" lon="-1.27798">
        <ele>17</ele>
        <time>2022-06-07T08:43:44Z</time>
      </trkpt>
      <trkpt lat="47.08706" lon="-1.27823">
        <ele>17</ele>
        <time>2022-06-07T08:44:07Z</time>
      </trkpt>
      <trkpt lat="47.08707" lon="-1.27838">
        <ele>16</ele>
        <time>2022-06-07T08:44:21Z</time>
      </trkpt>
      <trkpt lat="47.087" lon="-1.27847">
        <ele>16</ele>
        <time>2022-06-07T08:44:33Z</time>
      </trkpt>
      <trkpt lat="47.08668" lon="-1.2781">
        <ele>16</ele>
        <time>2022-06-07T08:45:28Z</time>
      </trkpt>
      <trkpt lat="47.08651" lon="-1.2777">
        <ele>17</ele>
        <time>2022-06-07T08:46:11Z</time>
      </trkpt>
      <trkpt lat="47.08642" lon="-1.27729">
        <ele>19</ele>
        <time>2022-06-07T08:46:50Z</time>
      </trkpt>
      <trkpt lat="47.0864" lon="-1.27697">
        <ele>21</ele>
        <time>2022-06-07T08:47:19Z</time>
      </trkpt>
      <trkpt lat="47.08679" lon="-1.2766">
        <ele>22</ele>
        <time>2022-06-07T08:48:21Z</time>
      </trkpt>
      <trkpt lat="47.08685" lon="-1.27662">
        <ele>21</ele>
        <time>2022-06-07T08:48:29Z</time>
      </trkpt>
      <trkpt lat="47.08696" lon="-1.27638">
        <ele>23</ele>
        <time>2022-06-07T08:48:55Z</time>
      </trkpt>
      <trkpt lat="47.08713" lon="-1.27626">
        <ele>22</ele>
        <time>2022-06-07T08:49:21Z</time>
      </trkpt>
      <trkpt lat="47.08717" lon="-1.27627">
        <ele>22</ele>
        <time>2022-06-07T08:49:26Z</time>
      </trkpt>
      <trkpt lat="47.08705" lon="-1.27634">
        <ele>22</ele>
        <time>2022-06-07T08:49:43Z</time>
      </trkpt>
      <trkpt lat="47.087" lon="-1.27628">
        <ele>23</ele>
        <time>2022-06-07T08:49:52Z</time>
      </trkpt>
      <trkpt lat="47.08698" lon="-1.27634">
        <ele>23</ele>
        <time>2022-06-07T08:49:58Z</time>
      </trkpt>
      <trkpt lat="47.08681" lon="-1.27605">
        <ele>27</ele>
        <time>2022-06-07T08:50:33Z</time>
      </trkpt>
      <trkpt lat="47.08676" lon="-1.27604">
        <ele>28</ele>
        <time>2022-06-07T08:50:39Z</time>
      </trkpt>
      <trkpt lat="47.08675" lon="-1.27601">
        <ele>28</ele>
        <time>2022-06-07T08:50:42Z</time>
      </trkpt>
      <trkpt lat="47.08691" lon="-1.27617">
        <ele>25</ele>
        <time>2022-06-07T08:51:08Z</time>
      </trkpt>
      <trkpt lat="47.08699" lon="-1.27633">
        <ele>23</ele>
        <time>2022-06-07T08:51:26Z</time>
      </trkpt>
      <trkpt lat="47.08701" lon="-1.27648">
        <ele>21</ele>
        <time>2022-06-07T08:51:40Z</time>
      </trkpt>
      <trkpt lat="47.087" lon="-1.27644">
        <ele>22</ele>
        <time>2022-06-07T08:51:44Z</time>
      </trkpt>
      <trkpt lat="47.08703" lon="-1.2765">
        <ele>21</ele>
        <time>2022-06-07T08:51:51Z</time>
      </trkpt>
      <trkpt lat="47.08706" lon="-1.27644">
        <ele>21</ele>
        <time>2022-06-07T08:51:58Z</time>
      </trkpt>
      <trkpt lat="47.08689" lon="-1.27623">
        <ele>25</ele>
        <time>2022-06-07T08:52:27Z</time>
      </trkpt>
      <trkpt lat="47.08699" lon="-1.27656">
        <ele>21</ele>
        <time>2022-06-07T08:53:00Z</time>
      </trkpt>
      <trkpt lat="47.08696" lon="-1.27648">
        <ele>22</ele>
        <time>2022-06-07T08:53:08Z</time>
      </trkpt>
      <trkpt lat="47.08694" lon="-1.27658">
        <ele>21</ele>
        <time>2022-06-07T08:53:18Z</time>
      </trkpt>
      <trkpt lat="47.08678" lon="-1.27668">
        <ele>21</ele>
        <time>2022-06-07T08:53:41Z</time>
      </trkpt>
      <trkpt lat="47.08672" lon="-1.27677">
        <ele>21</ele>
        <time>2022-06-07T08:53:52Z</time>
      </trkpt>
      <trkpt lat="47.0866" lon="-1.27682">
        <ele>21</ele>
        <time>2022-06-07T08:54:09Z</time>
      </trkpt>
      <trkpt lat="47.08649" lon="-1.2769">
        <ele>21</ele>
        <time>2022-06-07T08:54:26Z</time>
      </trkpt>
      <trkpt lat="47.08631" lon="-1.27689">
        <ele>22</ele>
        <time>2022-06-07T08:54:50Z</time>
      </trkpt>
      <trkpt lat="47.08611" lon="-1.27695">
        <ele>22</ele>
        <time>2022-06-07T08:55:17Z</time>
      </trkpt>
      <trkpt lat="47.0858" lon="-1.27698">
        <ele>23</ele>
        <time>2022-06-07T08:55:58Z</time>
      </trkpt>
      <trkpt lat="47.08489" lon="-1.27673">
        <ele>22</ele>
        <time>2022-06-07T08:58:02Z</time>
      </trkpt>
      <trkpt lat="47.08473" lon="-1.27661">
        <ele>22</ele>
        <time>2022-06-07T08:58:26Z</time>
      </trkpt>
      <trkpt lat="47.08435" lon="-1.27605">
        <ele>22</ele>
        <time>2022-06-07T08:59:38Z</time>
      </trkpt>
      <trkpt lat="47.0843" lon="-1.27602">
        <ele>21</ele>
        <time>2022-06-07T08:59:45Z</time>
      </trkpt>
      <trkpt lat="47.08429" lon="-1.27605">
        <ele>21</ele>
        <time>2022-06-07T08:59:48Z</time>
      </trkpt>
      <trkpt lat="47.08435" lon="-1.27603">
        <ele>22</ele>
        <time>2022-06-07T08:59:56Z</time>
      </trkpt>
      <trkpt lat="47.08427" lon="-1.27599">
        <ele>21</ele>
        <time>2022-06-07T09:00:07Z</time>
      </trkpt>
      <trkpt lat="47.08425" lon="-1.27601">
        <ele>21</ele>
        <time>2022-06-07T09:00:11Z</time>
      </trkpt>
      <trkpt lat="47.08396" lon="-1.27575">
        <ele>20</ele>
        <time>2022-06-07T09:00:56Z</time>
      </trkpt>
      <trkpt lat="47.08368" lon="-1.27555">
        <ele>19</ele>
        <time>2022-06-07T09:01:37Z</time>
      </trkpt>
      <trkpt lat="47.08351" lon="-1.27529">
        <ele>19</ele>
        <time>2022-06-07T09:02:10Z</time>
      </trkpt>
      <trkpt lat="47.08347" lon="-1.27505">
        <ele>19</ele>
        <time>2022-06-07T09:02:33Z</time>
      </trkpt>
      <trkpt lat="47.08343" lon="-1.27428">
        <ele>18</ele>
        <time>2022-06-07T09:03:43Z</time>
      </trkpt>
      <trkpt lat="47.08356" lon="-1.27399">
        <ele>19</ele>
        <time>2022-06-07T09:04:14Z</time>
      </trkpt>
      <trkpt lat="47.08371" lon="-1.27356">
        <ele>21</ele>
        <time>2022-06-07T09:04:58Z</time>
      </trkpt>
      <trkpt lat="47.08375" lon="-1.27283">
        <ele>22</ele>
        <time>2022-06-07T09:06:05Z</time>
      </trkpt>
      <trkpt lat="47.08384" lon="-1.27253">
        <ele>23</ele>
        <time>2022-06-07T09:06:35Z</time>
      </trkpt>
      <trkpt lat="47.08391" lon="-1.27243">
        <ele>23</ele>
        <time>2022-06-07T09:06:48Z</time>
      </trkpt>
      <trkpt lat="47.08405" lon="-1.27213">
        <ele>22</ele>
        <time>2022-06-07T09:07:21Z</time>
      </trkpt>
      <trkpt lat="47.08413" lon="-1.27189">
        <ele>21</ele>
        <time>2022-06-07T09:07:45Z</time>
      </trkpt>
      <trkpt lat="47.08425" lon="-1.2717">
        <ele>20</ele>
        <time>2022-06-07T09:08:09Z</time>
      </trkpt>
      <trkpt lat="47.08446" lon="-1.27149">
        <ele>21</ele>
        <time>2022-06-07T09:08:42Z</time>
      </trkpt>
      <trkpt lat="47.08448" lon="-1.2714">
        <ele>21</ele>
        <time>2022-06-07T09:08:51Z</time>
      </trkpt>
      <trkpt lat="47.08455" lon="-1.27133">
        <ele>21</ele>
        <time>2022-06-07T09:09:02Z</time>
      </trkpt>
      <trkpt lat="47.08462" lon="-1.27132">
        <ele>21</ele>
        <time>2022-06-07T09:09:12Z</time>
      </trkpt>
      <trkpt lat="47.0847" lon="-1.27125">
        <ele>21</ele>
        <time>2022-06-07T09:09:24Z</time>
      </trkpt>
      <trkpt lat="47.08478" lon="-1.27109">
        <ele>20</ele>
        <time>2022-06-07T09:09:42Z</time>
      </trkpt>
      <trkpt lat="47.08477" lon="-1.27105">
        <ele>20</ele>
        <time>2022-06-07T09:09:46Z</time>
      </trkpt>
      <trkpt lat="47.08495" lon="-1.27096">
        <ele>19</ele>
        <time>2022-06-07T09:10:11Z</time>
      </trkpt>
      <trkpt lat="47.08505" lon="-1.27077">
        <ele>19</ele>
        <time>2022-06-07T09:10:33Z</time>
      </trkpt>
      <trkpt lat="47.08516" lon="-1.27043">
        <ele>20</ele>
        <time>2022-06-07T09:11:07Z</time>
      </trkpt>
      <trkpt lat="47.08523" lon="-1.27032">
        <ele>20</ele>
        <time>2022-06-07T09:11:21Z</time>
      </trkpt>
      <trkpt lat="47.08522" lon="-1.27026">
        <ele>20</ele>
        <time>2022-06-07T09:11:27Z</time>
      </trkpt>
      <trkpt lat="47.08514" lon="-1.27055">
        <ele>19</ele>
        <time>2022-06-07T09:11:55Z</time>
      </trkpt>
      <trkpt lat="47.08511" lon="-1.27054">
        <ele>19</ele>
        <time>2022-06-07T09:11:59Z</time>
      </trkpt>
      <trkpt lat="47.0851" lon="-1.27058">
        <ele>19</ele>
        <time>2022-06-07T09:12:03Z</time>
      </trkpt>
      <trkpt lat="47.08513" lon="-1.27073">
        <ele>20</ele>
        <time>2022-06-07T09:12:17Z</time>
      </trkpt>
      <trkpt lat="47.08519" lon="-1.27086">
        <ele>21</ele>
        <time>2022-06-07T09:12:32Z</time>
      </trkpt>
      <trkpt lat="47.08528" lon="-1.27092">
        <ele>22</ele>
        <time>2022-06-07T09:12:45Z</time>
      </trkpt>
      <trkpt lat="47.08535" lon="-1.27085">
        <ele>23</ele>
        <time>2022-06-07T09:12:56Z</time>
      </trkpt>
      <trkpt lat="47.08539" lon="-1.27095">
        <ele>24</ele>
        <time>2022-06-07T09:13:07Z</time>
      </trkpt>
      <trkpt lat="47.08537" lon="-1.27109">
        <ele>25</ele>
        <time>2022-06-07T09:13:20Z</time>
      </trkpt>
      <trkpt lat="47.08532" lon="-1.27121">
        <ele>26</ele>
        <time>2022-06-07T09:13:32Z</time>
      </trkpt>
      <trkpt lat="47.08539" lon="-1.27138">
        <ele>28</ele>
        <time>2022-06-07T09:13:50Z</time>
      </trkpt>
      <trkpt lat="47.08547" lon="-1.27149">
        <ele>30</ele>
        <time>2022-06-07T09:14:05Z</time>
      </trkpt>
      <trkpt lat="47.0857" lon="-1.27169">
        <ele>33</ele>
        <time>2022-06-07T09:14:41Z</time>
      </trkpt>
      <trkpt lat="47.08585" lon="-1.27188">
        <ele>34</ele>
        <time>2022-06-07T09:15:07Z</time>
      </trkpt>
      <trkpt lat="47.08597" lon="-1.27218">
        <ele>34</ele>
        <time>2022-06-07T09:15:39Z</time>
      </trkpt>
      <trkpt lat="47.08599" lon="-1.27238">
        <ele>34</ele>
        <time>2022-06-07T09:15:57Z</time>
      </trkpt>
      <trkpt lat="47.08592" lon="-1.27293">
        <ele>36</ele>
        <time>2022-06-07T09:16:48Z</time>
      </trkpt>
      <trkpt lat="47.08591" lon="-1.27323">
        <ele>37</ele>
        <time>2022-06-07T09:17:15Z</time>
      </trkpt>
      <trkpt lat="47.08605" lon="-1.27373">
        <ele>37</ele>
        <time>2022-06-07T09:18:04Z</time>
      </trkpt>
      <trkpt lat="47.086" lon="-1.27391">
        <ele>37</ele>
        <time>2022-06-07T09:18:22Z</time>
      </trkpt>
      <trkpt lat="47.08604" lon="-1.27441">
        <ele>37</ele>
        <time>2022-06-07T09:19:08Z</time>
      </trkpt>
      <trkpt lat="47.08608" lon="-1.27447">
        <ele>37</ele>
        <time>2022-06-07T09:19:15Z</time>
      </trkpt>
      <trkpt lat="47.08593" lon="-1.27453">
        <ele>37</ele>
        <time>2022-06-07T09:19:36Z</time>
      </trkpt>
      <trkpt lat="47.08579" lon="-1.27448">
        <ele>38</ele>
        <time>2022-06-07T09:19:55Z</time>
      </trkpt>
      <trkpt lat="47.08568" lon="-1.27462">
        <ele>37</ele>
        <time>2022-06-07T09:20:15Z</time>
      </trkpt>
      <trkpt lat="47.08593" lon="-1.27492">
        <ele>37</ele>
        <time>2022-06-07T09:20:58Z</time>
      </trkpt>
      <trkpt lat="47.08593" lon="-1.27512">
        <ele>36</ele>
        <time>2022-06-07T09:21:16Z</time>
      </trkpt>
      <trkpt lat="47.08595" lon="-1.27523">
        <ele>36</ele>
        <time>2022-06-07T09:21:26Z</time>
      </trkpt>
      <trkpt lat="47.08599" lon="-1.27529">
        <ele>36</ele>
        <time>2022-06-07T09:21:34Z</time>
      </trkpt>
      <trkpt lat="47.08613" lon="-1.2753">
        <ele>35</ele>
        <time>2022-06-07T09:21:53Z</time>
      </trkpt>
      <trkpt lat="47.08616" lon="-1.27528">
        <ele>35</ele>
        <time>2022-06-07T09:21:57Z</time>
      </trkpt>
      <trkpt lat="47.08602" lon="-1.27536">
        <ele>35</ele>
        <time>2022-06-07T09:22:17Z</time>
      </trkpt>
      <trkpt lat="47.08596" lon="-1.27553">
        <ele>35</ele>
        <time>2022-06-07T09:22:35Z</time>
      </trkpt>
      <trkpt lat="47.08593" lon="-1.27569">
        <ele>35</ele>
        <time>2022-06-07T09:22:50Z</time>
      </trkpt>
      <trkpt lat="47.08595" lon="-1.27625">
        <ele>30</ele>
        <time>2022-06-07T09:23:41Z</time>
      </trkpt>
      <trkpt lat="47.0859" lon="-1.27639">
        <ele>29</ele>
        <time>2022-06-07T09:23:55Z</time>
      </trkpt>
      <trkpt lat="47.08581" lon="-1.27641">
        <ele>29</ele>
        <time>2022-06-07T09:24:07Z</time>
      </trkpt>
      <trkpt lat="47.08583" lon="-1.27652">
        <ele>28</ele>
        <time>2022-06-07T09:24:18Z</time>
      </trkpt>
      <trkpt lat="47.08566" lon="-1.27668">
        <ele>25</ele>
        <time>2022-06-07T09:24:45Z</time>
      </trkpt>
      <trkpt lat="47.08574" lon="-1.2769">
        <ele>24</ele>
        <time>2022-06-07T09:25:07Z</time>
      </trkpt>
      <trkpt lat="47.0859" lon="-1.27695">
        <ele>23</ele>
        <time>2022-06-07T09:25:29Z</time>
      </trkpt>
      <trkpt lat="47.0862" lon="-1.27691">
        <ele>22</ele>
        <time>2022-06-07T09:26:09Z</time>
      </trkpt>
      <trkpt lat="47.08641" lon="-1.27696">
        <ele>21</ele>
        <time>2022-06-07T09:26:38Z</time>
      </trkpt>
      <trkpt lat="47.08641" lon="-1.27718">
        <ele>20</ele>
        <time>2022-06-07T09:26:58Z</time>
      </trkpt>
      <trkpt lat="47.08653" lon="-1.27765">
        <ele>17</ele>
        <time>2022-06-07T09:27:43Z</time>
      </trkpt>
      <trkpt lat="47.08686" lon="-1.27827">
        <ele>16</ele>
        <time>2022-06-07T09:28:55Z</time>
      </trkpt>
      <trkpt lat="47.08704" lon="-1.27855">
        <ele>16</ele>
        <time>2022-06-07T09:29:30Z</time>
      </trkpt>
      <trkpt lat="47.08711" lon="-1.2786">
        <ele>16</ele>
        <time>2022-06-07T09:29:40Z</time>
      </trkpt>
      <trkpt lat="47.0872" lon="-1.27877">
        <ele>16</ele>
        <time>2022-06-07T09:30:00Z</time>
      </trkpt>
      <trkpt lat="47.08721" lon="-1.27894">
        <ele>16</ele>
        <time>2022-06-07T09:30:15Z</time>
      </trkpt>
      <trkpt lat="47.08715" lon="-1.2792">
        <ele>15</ele>
        <time>2022-06-07T09:30:40Z</time>
      </trkpt>
      <trkpt lat="47.08718" lon="-1.27939">
        <ele>16</ele>
        <time>2022-06-07T09:30:58Z</time>
      </trkpt>
      <trkpt lat="47.08696" lon="-1.27995">
        <ele>18</ele>
        <time>2022-06-07T09:31:57Z</time>
      </trkpt>
      <trkpt lat="47.08693" lon="-1.27997">
        <ele>18</ele>
        <time>2022-06-07T09:32:01Z</time>
      </trkpt>
      <trkpt lat="47.08686" lon="-1.28012">
        <ele>20</ele>
        <time>2022-06-07T09:32:17Z</time>
      </trkpt>
      <trkpt lat="47.08683" lon="-1.28042">
        <ele>24</ele>
        <time>2022-06-07T09:32:45Z</time>
      </trkpt>
      <trkpt lat="47.08688" lon="-1.28071">
        <ele>27</ele>
        <time>2022-06-07T09:33:12Z</time>
      </trkpt>
      <trkpt lat="47.08709" lon="-1.28073">
        <ele>25</ele>
        <time>2022-06-07T09:33:40Z</time>
      </trkpt>
      <trkpt lat="47.08722" lon="-1.28079">
        <ele>24</ele>
        <time>2022-06-07T09:33:58Z</time>
      </trkpt>
      <trkpt lat="47.08744" lon="-1.28083">
        <ele>23</ele>
        <time>2022-06-07T09:34:28Z</time>
      </trkpt>
      <trkpt lat="47.08758" lon="-1.28095">
        <ele>23</ele>
        <time>2022-06-07T09:34:50Z</time>
      </trkpt>
      <trkpt lat="47.08784" lon="-1.28124">
        <ele>26</ele>
        <time>2022-06-07T09:35:33Z</time>
      </trkpt>
      <trkpt lat="47.08801" lon="-1.28104">
        <ele>23</ele>
        <time>2022-06-07T09:36:02Z</time>
      </trkpt>
      <trkpt lat="47.08804" lon="-1.28085">
        <ele>21</ele>
        <time>2022-06-07T09:36:20Z</time>
      </trkpt>
      <trkpt lat="47.08812" lon="-1.2808">
        <ele>20</ele>
        <time>2022-06-07T09:36:32Z</time>
      </trkpt>
      <trkpt lat="47.08814" lon="-1.28068">
        <ele>20</ele>
        <time>2022-06-07T09:36:43Z</time>
      </trkpt>
      <trkpt lat="47.08827" lon="-1.28135">
        <ele>25</ele>
        <time>2022-06-07T09:37:46Z</time>
      </trkpt>
      <trkpt lat="47.08832" lon="-1.2815">
        <ele>26</ele>
        <time>2022-06-07T09:38:01Z</time>
      </trkpt>
      <trkpt lat="47.08832" lon="-1.28184">
        <ele>29</ele>
        <time>2022-06-07T09:38:32Z</time>
      </trkpt>
      <trkpt lat="47.0882" lon="-1.28229">
        <ele>33</ele>
        <time>2022-06-07T09:39:16Z</time>
      </trkpt>
      <trkpt lat="47.08822" lon="-1.28254">
        <ele>35</ele>
        <time>2022-06-07T09:39:39Z</time>
      </trkpt>
      <trkpt lat="47.08825" lon="-1.2826">
        <ele>35</ele>
        <time>2022-06-07T09:39:46Z</time>
      </trkpt>
      <trkpt lat="47.08818" lon="-1.28267">
        <ele>35</ele>
        <time>2022-06-07T09:39:57Z</time>
      </trkpt>
      <trkpt lat="47.08803" lon="-1.2827">
        <ele>36</ele>
        <time>2022-06-07T09:40:17Z</time>
      </trkpt>
      <trkpt lat="47.08785" lon="-1.28268">
        <ele>37</ele>
        <time>2022-06-07T09:40:41Z</time>
      </trkpt>
      <trkpt lat="47.08746" lon="-1.2824">
        <ele>38</ele>
        <time>2022-06-07T09:41:39Z</time>
      </trkpt>
      <trkpt lat="47.08706" lon="-1.2823">
        <ele>38</ele>
        <time>2022-06-07T09:42:33Z</time>
      </trkpt>
      <trkpt lat="47.08706" lon="-1.28209">
        <ele>37</ele>
        <time>2022-06-07T09:42:53Z</time>
      </trkpt>
      <trkpt lat="47.08709" lon="-1.28203">
        <ele>37</ele>
        <time>2022-06-07T09:42:59Z</time>
      </trkpt>
      <trkpt lat="47.08706" lon="-1.28206">
        <ele>37</ele>
        <time>2022-06-07T09:43:04Z</time>
      </trkpt>
      <trkpt lat="47.08702" lon="-1.28203">
        <ele>37</ele>
        <time>2022-06-07T09:43:10Z</time>
      </trkpt>
      <trkpt lat="47.08707" lon="-1.28213">
        <ele>37</ele>
        <time>2022-06-07T09:43:21Z</time>
      </trkpt>
      <trkpt lat="47.08692" lon="-1.28211">
        <ele>38</ele>
        <time>2022-06-07T09:43:41Z</time>
      </trkpt>
      <trkpt lat="47.08699" lon="-1.2819">
        <ele>37</ele>
        <time>2022-06-07T09:44:03Z</time>
      </trkpt>
      <trkpt lat="47.0869" lon="-1.28173">
        <ele>37</ele>
        <time>2022-06-07T09:44:22Z</time>
      </trkpt>
      <trkpt lat="47.08687" lon="-1.28143">
        <ele>34</ele>
        <time>2022-06-07T09:44:50Z</time>
      </trkpt>
      <trkpt lat="47.08702" lon="-1.2808">
        <ele>26</ele>
        <time>2022-06-07T09:45:50Z</time>
      </trkpt>
      <trkpt lat="47.08685" lon="-1.28048">
        <ele>24</ele>
        <time>2022-06-07T09:46:27Z</time>
      </trkpt>
      <trkpt lat="47.08671" lon="-1.28007">
        <ele>21</ele>
        <time>2022-06-07T09:47:09Z</time>
      </trkpt>
      <trkpt lat="47.08626" lon="-1.27976">
        <ele>22</ele>
        <time>2022-06-07T09:48:15Z</time>
      </trkpt>
      <trkpt lat="47.08584" lon="-1.27957">
        <ele>24</ele>
        <time>2022-06-07T09:49:14Z</time>
      </trkpt>
      <trkpt lat="47.0857" lon="-1.27941">
        <ele>25</ele>
        <time>2022-06-07T09:49:38Z</time>
      </trkpt>
      <trkpt lat="47.08557" lon="-1.27933">
        <ele>26</ele>
        <time>2022-06-07T09:49:57Z</time>
      </trkpt>
      <trkpt lat="47.08563" lon="-1.27897">
        <ele>24</ele>
        <time>2022-06-07T09:50:30Z</time>
      </trkpt>
      <trkpt lat="47.08563" lon="-1.27867">
        <ele>23</ele>
        <time>2022-06-07T09:50:57Z</time>
      </trkpt>
      <trkpt lat="47.0855" lon="-1.2784">
        <ele>23</ele>
        <time>2022-06-07T09:51:27Z</time>
      </trkpt>
      <trkpt lat="47.08538" lon="-1.27829">
        <ele>24</ele>
        <time>2022-06-07T09:51:46Z</time>
      </trkpt>
      <trkpt lat="47.08497" lon="-1.27777">
        <ele>23</ele>
        <time>2022-06-07T09:52:59Z</time>
      </trkpt>
      <trkpt lat="47.08459" lon="-1.27753">
        <ele>24</ele>
        <time>2022-06-07T09:53:54Z</time>
      </trkpt>
      <trkpt lat="47.08439" lon="-1.27714">
        <ele>23</ele>
        <time>2022-06-07T09:54:38Z</time>
      </trkpt>
      <trkpt lat="47.08416" lon="-1.2769">
        <ele>21</ele>
        <time>2022-06-07T09:55:16Z</time>
      </trkpt>
      <trkpt lat="47.08389" lon="-1.27673">
        <ele>22</ele>
        <time>2022-06-07T09:55:55Z</time>
      </trkpt>
      <trkpt lat="47.0834" lon="-1.27635">
        <ele>22</ele>
        <time>2022-06-07T09:57:09Z</time>
      </trkpt>
      <trkpt lat="47.08301" lon="-1.2762">
        <ele>22</ele>
        <time>2022-06-07T09:58:03Z</time>
      </trkpt>
      <trkpt lat="47.0829" lon="-1.27607">
        <ele>21</ele>
        <time>2022-06-07T09:58:22Z</time>
      </trkpt>
      <trkpt lat="47.08283" lon="-1.27593">
        <ele>20</ele>
        <time>2022-06-07T09:58:37Z</time>
      </trkpt>
      <trkpt lat="47.08276" lon="-1.27569">
        <ele>19</ele>
        <time>2022-06-07T09:59:01Z</time>
      </trkpt>
      <trkpt lat="47.08272" lon="-1.27541">
        <ele>19</ele>
        <time>2022-06-07T09:59:27Z</time>
      </trkpt>
      <trkpt lat="47.08275" lon="-1.27512">
        <ele>18</ele>
        <time>2022-06-07T09:59:54Z</time>
      </trkpt>
      <trkpt lat="47.08286" lon="-1.27458">
        <ele>18</ele>
        <time>2022-06-07T10:00:45Z</time>
      </trkpt>
      <trkpt lat="47.08301" lon="-1.27414">
        <ele>18</ele>
        <time>2022-06-07T10:01:30Z</time>
      </trkpt>
      <trkpt lat="47.08297" lon="-1.27382">
        <ele>19</ele>
        <time>2022-06-07T10:01:59Z</time>
      </trkpt>
      <trkpt lat="47.08285" lon="-1.27326">
        <ele>22</ele>
        <time>2022-06-07T10:02:53Z</time>
      </trkpt>
      <trkpt lat="47.08281" lon="-1.27292">
        <ele>24</ele>
        <time>2022-06-07T10:03:24Z</time>
      </trkpt>
      <trkpt lat="47.08281" lon="-1.27266">
        <ele>25</ele>
        <time>2022-06-07T10:03:48Z</time>
      </trkpt>
      <trkpt lat="47.08301" lon="-1.27164">
        <ele>26</ele>
        <time>2022-06-07T10:05:24Z</time>
      </trkpt>
      <trkpt lat="47.08324" lon="-1.27112">
        <ele>24</ele>
        <time>2022-06-07T10:06:20Z</time>
      </trkpt>
      <trkpt lat="47.08334" lon="-1.27095">
        <ele>23</ele>
        <time>2022-06-07T10:06:41Z</time>
      </trkpt>
      <trkpt lat="47.08364" lon="-1.27075">
        <ele>22</ele>
        <time>2022-06-07T10:07:25Z</time>
      </trkpt>
      <trkpt lat="47.08383" lon="-1.27048">
        <ele>22</ele>
        <time>2022-06-07T10:08:00Z</time>
      </trkpt>
      <trkpt lat="47.08397" lon="-1.26995">
        <ele>22</ele>
        <time>2022-06-07T10:08:52Z</time>
      </trkpt>
      <trkpt lat="47.08416" lon="-1.2697">
        <ele>21</ele>
        <time>2022-06-07T10:09:26Z</time>
      </trkpt>
      <trkpt lat="47.08427" lon="-1.26951">
        <ele>21</ele>
        <time>2022-06-07T10:09:48Z</time>
      </trkpt>
      <trkpt lat="47.08441" lon="-1.26944">
        <ele>21</ele>
        <time>2022-06-07T10:10:08Z</time>
      </trkpt>
      <trkpt lat="47.08456" lon="-1.26928">
        <ele>20</ele>
        <time>2022-06-07T10:10:33Z</time>
      </trkpt>
      <trkpt lat="47.08461" lon="-1.26917">
        <ele>20</ele>
        <time>2022-06-07T10:10:45Z</time>
      </trkpt>
      <trkpt lat="47.08462" lon="-1.2692">
        <ele>20</ele>
        <time>2022-06-07T10:10:48Z</time>
      </trkpt>
      <trkpt lat="47.08454" lon="-1.26861">
        <ele>23</ele>
        <time>2022-06-07T10:11:43Z</time>
      </trkpt>
      <trkpt lat="47.0843" lon="-1.26814">
        <ele>24</ele>
        <time>2022-06-07T10:12:36Z</time>
      </trkpt>
      <trkpt lat="47.08428" lon="-1.26806">
        <ele>25</ele>
        <time>2022-06-07T10:12:44Z</time>
      </trkpt>
      <trkpt lat="47.08415" lon="-1.26786">
        <ele>25</ele>
        <time>2022-06-07T10:13:09Z</time>
      </trkpt>
      <trkpt lat="47.08396" lon="-1.26763">
        <ele>26</ele>
        <time>2022-06-07T10:13:42Z</time>
      </trkpt>
      <trkpt lat="47.08367" lon="-1.26736">
        <ele>27</ele>
        <time>2022-06-07T10:14:28Z</time>
      </trkpt>
      <trkpt lat="47.08317" lon="-1.26647">
        <ele>24</ele>
        <time>2022-06-07T10:16:12Z</time>
      </trkpt>
      <trkpt lat="47.08324" lon="-1.26661">
        <ele>24</ele>
        <time>2022-06-07T10:16:28Z</time>
      </trkpt>
      <trkpt lat="47.08316" lon="-1.26654">
        <ele>24</ele>
        <time>2022-06-07T10:16:41Z</time>
      </trkpt>
      <trkpt lat="47.08315" lon="-1.26658">
        <ele>24</ele>
        <time>2022-06-07T10:16:45Z</time>
      </trkpt>
      <trkpt lat="47.08315" lon="-1.2665">
        <ele>24</ele>
        <time>2022-06-07T10:16:52Z</time>
      </trkpt>
      <trkpt lat="47.08322" lon="-1.26652">
        <ele>23</ele>
        <time>2022-06-07T10:17:01Z</time>
      </trkpt>
      <trkpt lat="47.08317" lon="-1.26653">
        <ele>24</ele>
        <time>2022-06-07T10:17:08Z</time>
      </trkpt>
      <trkpt lat="47.08323" lon="-1.26641">
        <ele>23</ele>
        <time>2022-06-07T10:17:22Z</time>
      </trkpt>
      <trkpt lat="47.08321" lon="-1.26646">
        <ele>23</ele>
        <time>2022-06-07T10:17:27Z</time>
      </trkpt>
      <trkpt lat="47.08324" lon="-1.2665">
        <ele>23</ele>
        <time>2022-06-07T10:17:32Z</time>
      </trkpt>
      <trkpt lat="47.08318" lon="-1.2665">
        <ele>24</ele>
        <time>2022-06-07T10:17:40Z</time>
      </trkpt>
      <trkpt lat="47.08316" lon="-1.26652">
        <ele>24</ele>
        <time>2022-06-07T10:17:43Z</time>
      </trkpt>
      <trkpt lat="47.08318" lon="-1.26654">
        <ele>24</ele>
        <time>2022-06-07T10:17:47Z</time>
      </trkpt>
      <trkpt lat="47.08316" lon="-1.2665">
        <ele>24</ele>
        <time>2022-06-07T10:17:51Z</time>
      </trkpt>
      <trkpt lat="47.08319" lon="-1.26656">
        <ele>24</ele>
        <time>2022-06-07T10:17:58Z</time>
      </trkpt>
      <trkpt lat="47.0832" lon="-1.26651">
        <ele>24</ele>
        <time>2022-06-07T10:18:03Z</time>
      </trkpt>
      <trkpt lat="47.08319" lon="-1.26654">
        <ele>24</ele>
        <time>2022-06-07T10:18:06Z</time>
      </trkpt>
      <trkpt lat="47.08316" lon="-1.26654">
        <ele>24</ele>
        <time>2022-06-07T10:18:10Z</time>
      </trkpt>
      <trkpt lat="47.08318" lon="-1.26643">
        <ele>23</ele>
        <time>2022-06-07T10:18:20Z</time>
      </trkpt>
      <trkpt lat="47.08325" lon="-1.26638">
        <ele>23</ele>
        <time>2022-06-07T10:18:30Z</time>
      </trkpt>
      <trkpt lat="47.08322" lon="-1.26642">
        <ele>23</ele>
        <time>2022-06-07T10:18:36Z</time>
      </trkpt>
      <trkpt lat="47.08322" lon="-1.2664">
        <ele>23</ele>
        <time>2022-06-07T10:18:38Z</time>
      </trkpt>
      <trkpt lat="47.08321" lon="-1.26648">
        <ele>23</ele>
        <time>2022-06-07T10:18:45Z</time>
      </trkpt>
      <trkpt lat="47.08317" lon="-1.26644">
        <ele>24</ele>
        <time>2022-06-07T10:18:52Z</time>
      </trkpt>
      <trkpt lat="47.08312" lon="-1.26643">
        <ele>24</ele>
        <time>2022-06-07T10:18:58Z</time>
      </trkpt>
      <trkpt lat="47.083" lon="-1.26632">
        <ele>24</ele>
        <time>2022-06-07T10:19:17Z</time>
      </trkpt>
      <trkpt lat="47.08287" lon="-1.26612">
        <ele>24</ele>
        <time>2022-06-07T10:19:42Z</time>
      </trkpt>
      <trkpt lat="47.08267" lon="-1.26593">
        <ele>24</ele>
        <time>2022-06-07T10:20:14Z</time>
      </trkpt>
      <trkpt lat="47.08253" lon="-1.26595">
        <ele>25</ele>
        <time>2022-06-07T10:20:33Z</time>
      </trkpt>
      <trkpt lat="47.0823" lon="-1.26616">
        <ele>28</ele>
        <time>2022-06-07T10:21:09Z</time>
      </trkpt>
      <trkpt lat="47.08195" lon="-1.26642">
        <ele>31</ele>
        <time>2022-06-07T10:22:01Z</time>
      </trkpt>
      <trkpt lat="47.08172" lon="-1.26647">
        <ele>32</ele>
        <time>2022-06-07T10:22:32Z</time>
      </trkpt>
      <trkpt lat="47.08155" lon="-1.26639">
        <ele>33</ele>
        <time>2022-06-07T10:22:56Z</time>
      </trkpt>
      <trkpt lat="47.0814" lon="-1.26623">
        <ele>33</ele>
        <time>2022-06-07T10:23:21Z</time>
      </trkpt>
      <trkpt lat="47.08132" lon="-1.26603">
        <ele>33</ele>
        <time>2022-06-07T10:23:42Z</time>
      </trkpt>
      <trkpt lat="47.08131" lon="-1.26583">
        <ele>32</ele>
        <time>2022-06-07T10:24:00Z</time>
      </trkpt>
      <trkpt lat="47.08133" lon="-1.26565">
        <ele>31</ele>
        <time>2022-06-07T10:24:17Z</time>
      </trkpt>
      <trkpt lat="47.08129" lon="-1.26536">
        <ele>30</ele>
        <time>2022-06-07T10:24:44Z</time>
      </trkpt>
      <trkpt lat="47.0812" lon="-1.26497">
        <ele>28</ele>
        <time>2022-06-07T10:25:21Z</time>
      </trkpt>
      <trkpt lat="47.08114" lon="-1.26483">
        <ele>28</ele>
        <time>2022-06-07T10:25:36Z</time>
      </trkpt>
      <trkpt lat="47.08103" lon="-1.26476">
        <ele>28</ele>
        <time>2022-06-07T10:25:52Z</time>
      </trkpt>
      <trkpt lat="47.08096" lon="-1.26475">
        <ele>28</ele>
        <time>2022-06-07T10:26:02Z</time>
      </trkpt>
      <trkpt lat="47.08073" lon="-1.26464">
        <ele>28</ele>
        <time>2022-06-07T10:26:34Z</time>
      </trkpt>
      <trkpt lat="47.0805" lon="-1.2647">
        <ele>29</ele>
        <time>2022-06-07T10:27:05Z</time>
      </trkpt>
      <trkpt lat="47.08038" lon="-1.26468">
        <ele>29</ele>
        <time>2022-06-07T10:27:21Z</time>
      </trkpt>
      <trkpt lat="47.08021" lon="-1.2647">
        <ele>29</ele>
        <time>2022-06-07T10:27:44Z</time>
      </trkpt>
      <trkpt lat="47.08041" lon="-1.26444">
        <ele>28</ele>
        <time>2022-06-07T10:28:19Z</time>
      </trkpt>
      <trkpt lat="47.08039" lon="-1.26409">
        <ele>27</ele>
        <time>2022-06-07T10:28:51Z</time>
      </trkpt>
      <trkpt lat="47.08032" lon="-1.2638">
        <ele>27</ele>
        <time>2022-06-07T10:29:19Z</time>
      </trkpt>
      <trkpt lat="47.08021" lon="-1.26367">
        <ele>27</ele>
        <time>2022-06-07T10:29:38Z</time>
      </trkpt>
      <trkpt lat="47.07953" lon="-1.26314">
        <ele>27</ele>
        <time>2022-06-07T10:31:21Z</time>
      </trkpt>
      <trkpt lat="47.07941" lon="-1.26313">
        <ele>28</ele>
        <time>2022-06-07T10:31:37Z</time>
      </trkpt>
      <trkpt lat="47.07932" lon="-1.26317">
        <ele>28</ele>
        <time>2022-06-07T10:31:50Z</time>
      </trkpt>
      <trkpt lat="47.0793" lon="-1.26326">
        <ele>29</ele>
        <time>2022-06-07T10:31:58Z</time>
      </trkpt>
      <trkpt lat="47.07922" lon="-1.26333">
        <ele>30</ele>
        <time>2022-06-07T10:32:11Z</time>
      </trkpt>
      <trkpt lat="47.07919" lon="-1.26343">
        <ele>30</ele>
        <time>2022-06-07T10:32:20Z</time>
      </trkpt>
      <trkpt lat="47.07913" lon="-1.2635">
        <ele>31</ele>
        <time>2022-06-07T10:32:31Z</time>
      </trkpt>
      <trkpt lat="47.07913" lon="-1.26354">
        <ele>31</ele>
        <time>2022-06-07T10:32:34Z</time>
      </trkpt>
      <trkpt lat="47.07906" lon="-1.26352">
        <ele>32</ele>
        <time>2022-06-07T10:32:44Z</time>
      </trkpt>
      <trkpt lat="47.07905" lon="-1.26361">
        <ele>32</ele>
        <time>2022-06-07T10:32:52Z</time>
      </trkpt>
      <trkpt lat="47.07882" lon="-1.26368">
        <ele>34</ele>
        <time>2022-06-07T10:33:23Z</time>
      </trkpt>
      <trkpt lat="47.07852" lon="-1.26385">
        <ele>36</ele>
        <time>2022-06-07T10:34:06Z</time>
      </trkpt>
      <trkpt lat="47.07846" lon="-1.2639">
        <ele>36</ele>
        <time>2022-06-07T10:34:16Z</time>
      </trkpt>
      <trkpt lat="47.07844" lon="-1.26395">
        <ele>36</ele>
        <time>2022-06-07T10:34:21Z</time>
      </trkpt>
    </trkseg>
  </trk>
</gpx>